<?xml version="1.0" encoding="UTF-8" standalone="no" ?>
<gpx xmlns="http://www.topografix.com/GPX/1/1" xmlns:xsi="http://www.w3.org/2001/XMLSchema-instance" xsi:schemaLocation="http://www.topografix.com/GPX/1/1 http://www.topografix.com/GPX/1/1/gpx.xsd" version="1.1" creator="VisuGPX - https://www.visugpx.com">
  <metadata>
    <name>VTT Luz-Stjust-Sept</name>
  </metadata>
  <trk>
    <name><![CDATA[VTT Luz-Stjust-Sept_1]]></name>
    <trkseg>
      <trkpt lat="45.58679" lon="4.962">
        <ele>263.323</ele>
        <time>2020-11-18T15:29:11Z</time>
      </trkpt>
      <trkpt lat="45.58677" lon="4.96237">
        <ele>264.651</ele>
        <time>2020-11-18T15:29:17Z</time>
      </trkpt>
      <trkpt lat="45.58674" lon="4.96275">
        <ele>264.295</ele>
        <time>2020-11-18T15:29:23Z</time>
      </trkpt>
      <trkpt lat="45.58671" lon="4.96307">
        <ele>264.323</ele>
        <time>2020-11-18T15:29:28Z</time>
      </trkpt>
      <trkpt lat="45.58666" lon="4.96347">
        <ele>264.991</ele>
        <time>2020-11-18T15:29:34Z</time>
      </trkpt>
      <trkpt lat="45.58662" lon="4.96378">
        <ele>264.948</ele>
        <time>2020-11-18T15:29:39Z</time>
      </trkpt>
      <trkpt lat="45.58659" lon="4.96407">
        <ele>264.868</ele>
        <time>2020-11-18T15:29:44Z</time>
      </trkpt>
      <trkpt lat="45.58655" lon="4.96437">
        <ele>263.9</ele>
        <time>2020-11-18T15:29:49Z</time>
      </trkpt>
      <trkpt lat="45.58653" lon="4.96473">
        <ele>263.449</ele>
        <time>2020-11-18T15:29:55Z</time>
      </trkpt>
      <trkpt lat="45.58654" lon="4.96512">
        <ele>262.693</ele>
        <time>2020-11-18T15:30:01Z</time>
      </trkpt>
      <trkpt lat="45.58647" lon="4.96534">
        <ele>262.432</ele>
        <time>2020-11-18T15:30:06Z</time>
      </trkpt>
      <trkpt lat="45.58644" lon="4.96567">
        <ele>261.292</ele>
        <time>2020-11-18T15:30:11Z</time>
      </trkpt>
      <trkpt lat="45.58644" lon="4.96602">
        <ele>260.373</ele>
        <time>2020-11-18T15:30:16Z</time>
      </trkpt>
      <trkpt lat="45.58643" lon="4.96644">
        <ele>260.163</ele>
        <time>2020-11-18T15:30:22Z</time>
      </trkpt>
      <trkpt lat="45.58642" lon="4.96685">
        <ele>260.175</ele>
        <time>2020-11-18T15:30:28Z</time>
      </trkpt>
      <trkpt lat="45.58639" lon="4.9672">
        <ele>260.553</ele>
        <time>2020-11-18T15:30:33Z</time>
      </trkpt>
      <trkpt lat="45.58632" lon="4.96775">
        <ele>260.711</ele>
        <time>2020-11-18T15:30:41Z</time>
      </trkpt>
      <trkpt lat="45.58625" lon="4.96809">
        <ele>261.169</ele>
        <time>2020-11-18T15:30:46Z</time>
      </trkpt>
      <trkpt lat="45.58617" lon="4.9685">
        <ele>260.945</ele>
        <time>2020-11-18T15:30:52Z</time>
      </trkpt>
      <trkpt lat="45.58609" lon="4.96884">
        <ele>260.561</ele>
        <time>2020-11-18T15:30:57Z</time>
      </trkpt>
      <trkpt lat="45.58601" lon="4.96926">
        <ele>260.911</ele>
        <time>2020-11-18T15:31:03Z</time>
      </trkpt>
      <trkpt lat="45.58592" lon="4.96966">
        <ele>261.416</ele>
        <time>2020-11-18T15:31:09Z</time>
      </trkpt>
      <trkpt lat="45.58584" lon="4.97004">
        <ele>261.369</ele>
        <time>2020-11-18T15:31:15Z</time>
      </trkpt>
      <trkpt lat="45.58576" lon="4.97041">
        <ele>260.634</ele>
        <time>2020-11-18T15:31:21Z</time>
      </trkpt>
      <trkpt lat="45.5857" lon="4.97071">
        <ele>260.674</ele>
        <time>2020-11-18T15:31:26Z</time>
      </trkpt>
      <trkpt lat="45.58563" lon="4.97108">
        <ele>260.523</ele>
        <time>2020-11-18T15:31:32Z</time>
      </trkpt>
      <trkpt lat="45.58558" lon="4.9714">
        <ele>260.192</ele>
        <time>2020-11-18T15:31:37Z</time>
      </trkpt>
      <trkpt lat="45.58551" lon="4.97178">
        <ele>260.134</ele>
        <time>2020-11-18T15:31:44Z</time>
      </trkpt>
      <trkpt lat="45.58546" lon="4.97214">
        <ele>261.112</ele>
        <time>2020-11-18T15:31:49Z</time>
      </trkpt>
      <trkpt lat="45.58541" lon="4.97252">
        <ele>262.019</ele>
        <time>2020-11-18T15:31:55Z</time>
      </trkpt>
      <trkpt lat="45.58537" lon="4.97284">
        <ele>262.383</ele>
        <time>2020-11-18T15:32:00Z</time>
      </trkpt>
      <trkpt lat="45.58533" lon="4.97321">
        <ele>263.033</ele>
        <time>2020-11-18T15:32:06Z</time>
      </trkpt>
      <trkpt lat="45.58528" lon="4.97353">
        <ele>263.115</ele>
        <time>2020-11-18T15:32:11Z</time>
      </trkpt>
      <trkpt lat="45.58523" lon="4.97391">
        <ele>264.129</ele>
        <time>2020-11-18T15:32:17Z</time>
      </trkpt>
      <trkpt lat="45.58516" lon="4.97421">
        <ele>265.164</ele>
        <time>2020-11-18T15:32:22Z</time>
      </trkpt>
      <trkpt lat="45.58509" lon="4.97451">
        <ele>265.774</ele>
        <time>2020-11-18T15:32:28Z</time>
      </trkpt>
      <trkpt lat="45.58498" lon="4.97487">
        <ele>267.09</ele>
        <time>2020-11-18T15:32:33Z</time>
      </trkpt>
      <trkpt lat="45.58486" lon="4.97515">
        <ele>267.657</ele>
        <time>2020-11-18T15:32:39Z</time>
      </trkpt>
      <trkpt lat="45.5847" lon="4.97548">
        <ele>267.586</ele>
        <time>2020-11-18T15:32:44Z</time>
      </trkpt>
      <trkpt lat="45.58462" lon="4.97577">
        <ele>268.375</ele>
        <time>2020-11-18T15:32:49Z</time>
      </trkpt>
      <trkpt lat="45.58456" lon="4.97615">
        <ele>269.195</ele>
        <time>2020-11-18T15:32:55Z</time>
      </trkpt>
      <trkpt lat="45.58449" lon="4.97652">
        <ele>269.294</ele>
        <time>2020-11-18T15:33:02Z</time>
      </trkpt>
      <trkpt lat="45.58443" lon="4.97691">
        <ele>271.18</ele>
        <time>2020-11-18T15:33:07Z</time>
      </trkpt>
      <trkpt lat="45.58438" lon="4.9773">
        <ele>271.524</ele>
        <time>2020-11-18T15:33:13Z</time>
      </trkpt>
      <trkpt lat="45.5843" lon="4.97774">
        <ele>272.998</ele>
        <time>2020-11-18T15:33:20Z</time>
      </trkpt>
      <trkpt lat="45.58423" lon="4.97807">
        <ele>272.934</ele>
        <time>2020-11-18T15:33:25Z</time>
      </trkpt>
      <trkpt lat="45.58415" lon="4.97838">
        <ele>272.962</ele>
        <time>2020-11-18T15:33:30Z</time>
      </trkpt>
      <trkpt lat="45.58408" lon="4.97877">
        <ele>271.86</ele>
        <time>2020-11-18T15:33:36Z</time>
      </trkpt>
      <trkpt lat="45.58399" lon="4.97918">
        <ele>270.457</ele>
        <time>2020-11-18T15:33:42Z</time>
      </trkpt>
      <trkpt lat="45.5839" lon="4.97954">
        <ele>270.136</ele>
        <time>2020-11-18T15:33:47Z</time>
      </trkpt>
      <trkpt lat="45.58382" lon="4.97993">
        <ele>269.296</ele>
        <time>2020-11-18T15:33:52Z</time>
      </trkpt>
      <trkpt lat="45.58372" lon="4.98041">
        <ele>268.708</ele>
        <time>2020-11-18T15:33:58Z</time>
      </trkpt>
      <trkpt lat="45.58362" lon="4.98092">
        <ele>268.095</ele>
        <time>2020-11-18T15:34:04Z</time>
      </trkpt>
      <trkpt lat="45.58349" lon="4.98144">
        <ele>267.127</ele>
        <time>2020-11-18T15:34:10Z</time>
      </trkpt>
      <trkpt lat="45.58338" lon="4.98197">
        <ele>266.105</ele>
        <time>2020-11-18T15:34:16Z</time>
      </trkpt>
      <trkpt lat="45.58324" lon="4.98254">
        <ele>265.611</ele>
        <time>2020-11-18T15:34:23Z</time>
      </trkpt>
      <trkpt lat="45.58315" lon="4.98292">
        <ele>265.505</ele>
        <time>2020-11-18T15:34:28Z</time>
      </trkpt>
      <trkpt lat="45.58306" lon="4.98333">
        <ele>265.252</ele>
        <time>2020-11-18T15:34:34Z</time>
      </trkpt>
      <trkpt lat="45.58294" lon="4.98374">
        <ele>264.965</ele>
        <time>2020-11-18T15:34:40Z</time>
      </trkpt>
      <trkpt lat="45.5829" lon="4.98409">
        <ele>265.628</ele>
        <time>2020-11-18T15:34:46Z</time>
      </trkpt>
      <trkpt lat="45.58283" lon="4.98451">
        <ele>265.975</ele>
        <time>2020-11-18T15:34:51Z</time>
      </trkpt>
      <trkpt lat="45.58273" lon="4.98492">
        <ele>266.678</ele>
        <time>2020-11-18T15:34:57Z</time>
      </trkpt>
      <trkpt lat="45.58267" lon="4.98525">
        <ele>267.318</ele>
        <time>2020-11-18T15:35:02Z</time>
      </trkpt>
      <trkpt lat="45.5827" lon="4.98567">
        <ele>267.532</ele>
        <time>2020-11-18T15:35:08Z</time>
      </trkpt>
      <trkpt lat="45.58276" lon="4.98607">
        <ele>267.756</ele>
        <time>2020-11-18T15:35:14Z</time>
      </trkpt>
      <trkpt lat="45.5828" lon="4.98643">
        <ele>267.116</ele>
        <time>2020-11-18T15:35:19Z</time>
      </trkpt>
      <trkpt lat="45.58286" lon="4.98685">
        <ele>266.302</ele>
        <time>2020-11-18T15:35:25Z</time>
      </trkpt>
      <trkpt lat="45.5829" lon="4.98721">
        <ele>266.821</ele>
        <time>2020-11-18T15:35:30Z</time>
      </trkpt>
      <trkpt lat="45.58295" lon="4.98762">
        <ele>267.472</ele>
        <time>2020-11-18T15:35:36Z</time>
      </trkpt>
      <trkpt lat="45.58299" lon="4.98794">
        <ele>267.773</ele>
        <time>2020-11-18T15:35:41Z</time>
      </trkpt>
      <trkpt lat="45.58305" lon="4.98826">
        <ele>267.181</ele>
        <time>2020-11-18T15:35:46Z</time>
      </trkpt>
      <trkpt lat="45.58309" lon="4.98869">
        <ele>266.602</ele>
        <time>2020-11-18T15:35:52Z</time>
      </trkpt>
      <trkpt lat="45.58311" lon="4.98911">
        <ele>266.389</ele>
        <time>2020-11-18T15:35:58Z</time>
      </trkpt>
      <trkpt lat="45.58311" lon="4.98964">
        <ele>265.709</ele>
        <time>2020-11-18T15:36:03Z</time>
      </trkpt>
      <trkpt lat="45.5831" lon="4.99021">
        <ele>266.943</ele>
        <time>2020-11-18T15:36:09Z</time>
      </trkpt>
      <trkpt lat="45.58309" lon="4.99063">
        <ele>266.865</ele>
        <time>2020-11-18T15:36:14Z</time>
      </trkpt>
      <trkpt lat="45.58307" lon="4.99113">
        <ele>268.405</ele>
        <time>2020-11-18T15:36:20Z</time>
      </trkpt>
      <trkpt lat="45.58305" lon="4.99167">
        <ele>269.505</ele>
        <time>2020-11-18T15:36:27Z</time>
      </trkpt>
      <trkpt lat="45.58307" lon="4.99209">
        <ele>270.899</ele>
        <time>2020-11-18T15:36:33Z</time>
      </trkpt>
      <trkpt lat="45.58312" lon="4.99251">
        <ele>272.049</ele>
        <time>2020-11-18T15:36:39Z</time>
      </trkpt>
      <trkpt lat="45.58317" lon="4.99292">
        <ele>272.893</ele>
        <time>2020-11-18T15:36:45Z</time>
      </trkpt>
      <trkpt lat="45.58325" lon="4.99333">
        <ele>273.83</ele>
        <time>2020-11-18T15:36:51Z</time>
      </trkpt>
      <trkpt lat="45.58332" lon="4.99375">
        <ele>275.223</ele>
        <time>2020-11-18T15:36:57Z</time>
      </trkpt>
      <trkpt lat="45.58338" lon="4.99418">
        <ele>275.687</ele>
        <time>2020-11-18T15:37:03Z</time>
      </trkpt>
      <trkpt lat="45.58343" lon="4.99462">
        <ele>276.419</ele>
        <time>2020-11-18T15:37:09Z</time>
      </trkpt>
      <trkpt lat="45.58349" lon="4.99508">
        <ele>277.609</ele>
        <time>2020-11-18T15:37:15Z</time>
      </trkpt>
      <trkpt lat="45.58359" lon="4.9956">
        <ele>276.765</ele>
        <time>2020-11-18T15:37:22Z</time>
      </trkpt>
      <trkpt lat="45.58364" lon="4.99599">
        <ele>277.683</ele>
        <time>2020-11-18T15:37:27Z</time>
      </trkpt>
      <trkpt lat="45.58373" lon="4.99644">
        <ele>279.397</ele>
        <time>2020-11-18T15:37:33Z</time>
      </trkpt>
      <trkpt lat="45.58381" lon="4.99679">
        <ele>280.464</ele>
        <time>2020-11-18T15:37:38Z</time>
      </trkpt>
      <trkpt lat="45.58388" lon="4.99725">
        <ele>281.077</ele>
        <time>2020-11-18T15:37:44Z</time>
      </trkpt>
      <trkpt lat="45.58394" lon="4.9977">
        <ele>280.54</ele>
        <time>2020-11-18T15:37:50Z</time>
      </trkpt>
      <trkpt lat="45.58399" lon="4.99809">
        <ele>280.014</ele>
        <time>2020-11-18T15:37:55Z</time>
      </trkpt>
      <trkpt lat="45.58407" lon="4.99853">
        <ele>279.248</ele>
        <time>2020-11-18T15:38:01Z</time>
      </trkpt>
      <trkpt lat="45.58429" lon="4.99873">
        <ele>280.102</ele>
        <time>2020-11-18T15:38:07Z</time>
      </trkpt>
      <trkpt lat="45.58453" lon="4.99856">
        <ele>280.163</ele>
        <time>2020-11-18T15:38:12Z</time>
      </trkpt>
      <trkpt lat="45.58474" lon="4.9984">
        <ele>281.465</ele>
        <time>2020-11-18T15:38:18Z</time>
      </trkpt>
      <trkpt lat="45.58492" lon="4.99829">
        <ele>282.832</ele>
        <time>2020-11-18T15:38:23Z</time>
      </trkpt>
      <trkpt lat="45.58515" lon="4.99818">
        <ele>284.998</ele>
        <time>2020-11-18T15:38:29Z</time>
      </trkpt>
      <trkpt lat="45.58534" lon="4.99811">
        <ele>287.701</ele>
        <time>2020-11-18T15:38:34Z</time>
      </trkpt>
      <trkpt lat="45.58552" lon="4.99812">
        <ele>289.773</ele>
        <time>2020-11-18T15:38:39Z</time>
      </trkpt>
      <trkpt lat="45.58576" lon="4.99814">
        <ele>292.021</ele>
        <time>2020-11-18T15:38:45Z</time>
      </trkpt>
      <trkpt lat="45.58596" lon="4.99818">
        <ele>294.294</ele>
        <time>2020-11-18T15:38:50Z</time>
      </trkpt>
      <trkpt lat="45.58618" lon="4.99824">
        <ele>296.199</ele>
        <time>2020-11-18T15:38:55Z</time>
      </trkpt>
      <trkpt lat="45.58641" lon="4.99837">
        <ele>296.725</ele>
        <time>2020-11-18T15:39:02Z</time>
      </trkpt>
      <trkpt lat="45.58653" lon="4.9987">
        <ele>294.687</ele>
        <time>2020-11-18T15:39:07Z</time>
      </trkpt>
      <trkpt lat="45.5867" lon="4.99904">
        <ele>293.574</ele>
        <time>2020-11-18T15:39:13Z</time>
      </trkpt>
      <trkpt lat="45.5868" lon="4.99894">
        <ele>295.818</ele>
        <time>2020-11-18T15:39:19Z</time>
      </trkpt>
      <trkpt lat="45.58676" lon="4.99898">
        <ele>297.135</ele>
        <time>2020-11-18T15:41:29Z</time>
      </trkpt>
      <trkpt lat="45.5868" lon="4.9992">
        <ele>295.201</ele>
        <time>2020-11-18T15:41:34Z</time>
      </trkpt>
      <trkpt lat="45.58685" lon="4.99951">
        <ele>294.211</ele>
        <time>2020-11-18T15:41:40Z</time>
      </trkpt>
      <trkpt lat="45.58691" lon="4.99976">
        <ele>293.552</ele>
        <time>2020-11-18T15:41:46Z</time>
      </trkpt>
      <trkpt lat="45.58695" lon="4.99985">
        <ele>293.347</ele>
        <time>2020-11-18T15:41:51Z</time>
      </trkpt>
      <trkpt lat="45.587" lon="4.99988">
        <ele>293.653</ele>
        <time>2020-11-18T15:42:08Z</time>
      </trkpt>
      <trkpt lat="45.58707" lon="5.00003">
        <ele>293.626</ele>
        <time>2020-11-18T15:42:13Z</time>
      </trkpt>
      <trkpt lat="45.58715" lon="5.00021">
        <ele>291.181</ele>
        <time>2020-11-18T15:42:18Z</time>
      </trkpt>
      <trkpt lat="45.58721" lon="5.00034">
        <ele>291.081</ele>
        <time>2020-11-18T15:42:24Z</time>
      </trkpt>
      <trkpt lat="45.58727" lon="5.00054">
        <ele>288.811</ele>
        <time>2020-11-18T15:42:29Z</time>
      </trkpt>
      <trkpt lat="45.5872" lon="5.00073">
        <ele>285.558</ele>
        <time>2020-11-18T15:42:34Z</time>
      </trkpt>
      <trkpt lat="45.58717" lon="5.00079">
        <ele>283.52</ele>
        <time>2020-11-18T15:42:41Z</time>
      </trkpt>
      <trkpt lat="45.58712" lon="5.00094">
        <ele>282.491</ele>
        <time>2020-11-18T15:42:46Z</time>
      </trkpt>
      <trkpt lat="45.58697" lon="5.00107">
        <ele>283.665</ele>
        <time>2020-11-18T15:42:51Z</time>
      </trkpt>
      <trkpt lat="45.58683" lon="5.00122">
        <ele>283.911</ele>
        <time>2020-11-18T15:42:57Z</time>
      </trkpt>
      <trkpt lat="45.58669" lon="5.00134">
        <ele>284.911</ele>
        <time>2020-11-18T15:43:03Z</time>
      </trkpt>
      <trkpt lat="45.58656" lon="5.00147">
        <ele>285.926</ele>
        <time>2020-11-18T15:43:09Z</time>
      </trkpt>
      <trkpt lat="45.58644" lon="5.00155">
        <ele>288.139</ele>
        <time>2020-11-18T15:43:14Z</time>
      </trkpt>
      <trkpt lat="45.58635" lon="5.00161">
        <ele>288.534</ele>
        <time>2020-11-18T15:43:20Z</time>
      </trkpt>
      <trkpt lat="45.58617" lon="5.00175">
        <ele>289.564</ele>
        <time>2020-11-18T15:43:25Z</time>
      </trkpt>
      <trkpt lat="45.58594" lon="5.00189">
        <ele>291.624</ele>
        <time>2020-11-18T15:43:30Z</time>
      </trkpt>
      <trkpt lat="45.58557" lon="5.002">
        <ele>291.583</ele>
        <time>2020-11-18T15:43:36Z</time>
      </trkpt>
      <trkpt lat="45.58536" lon="5.00209">
        <ele>290.879</ele>
        <time>2020-11-18T15:43:42Z</time>
      </trkpt>
      <trkpt lat="45.58522" lon="5.00213">
        <ele>290.639</ele>
        <time>2020-11-18T15:43:47Z</time>
      </trkpt>
      <trkpt lat="45.58503" lon="5.00219">
        <ele>287.984</ele>
        <time>2020-11-18T15:43:53Z</time>
      </trkpt>
      <trkpt lat="45.58487" lon="5.00225">
        <ele>287.754</ele>
        <time>2020-11-18T15:43:59Z</time>
      </trkpt>
      <trkpt lat="45.58473" lon="5.0023">
        <ele>287.556</ele>
        <time>2020-11-18T15:44:05Z</time>
      </trkpt>
      <trkpt lat="45.58469" lon="5.00236">
        <ele>287.376</ele>
        <time>2020-11-18T15:44:10Z</time>
      </trkpt>
      <trkpt lat="45.58468" lon="5.00266">
        <ele>286.787</ele>
        <time>2020-11-18T15:44:16Z</time>
      </trkpt>
      <trkpt lat="45.58472" lon="5.00304">
        <ele>285.731</ele>
        <time>2020-11-18T15:44:23Z</time>
      </trkpt>
      <trkpt lat="45.58477" lon="5.00339">
        <ele>284.959</ele>
        <time>2020-11-18T15:44:29Z</time>
      </trkpt>
      <trkpt lat="45.58482" lon="5.00373">
        <ele>283.838</ele>
        <time>2020-11-18T15:44:35Z</time>
      </trkpt>
      <trkpt lat="45.58487" lon="5.00405">
        <ele>283.837</ele>
        <time>2020-11-18T15:44:41Z</time>
      </trkpt>
      <trkpt lat="45.58486" lon="5.00426">
        <ele>283.704</ele>
        <time>2020-11-18T15:44:46Z</time>
      </trkpt>
      <trkpt lat="45.58465" lon="5.0043">
        <ele>284.266</ele>
        <time>2020-11-18T15:44:52Z</time>
      </trkpt>
      <trkpt lat="45.58447" lon="5.00433">
        <ele>284.515</ele>
        <time>2020-11-18T15:44:58Z</time>
      </trkpt>
      <trkpt lat="45.58425" lon="5.00437">
        <ele>284.873</ele>
        <time>2020-11-18T15:45:03Z</time>
      </trkpt>
      <trkpt lat="45.58408" lon="5.00443">
        <ele>285.396</ele>
        <time>2020-11-18T15:45:08Z</time>
      </trkpt>
      <trkpt lat="45.58388" lon="5.00452">
        <ele>285.353</ele>
        <time>2020-11-18T15:45:14Z</time>
      </trkpt>
      <trkpt lat="45.58368" lon="5.00465">
        <ele>285.408</ele>
        <time>2020-11-18T15:45:20Z</time>
      </trkpt>
      <trkpt lat="45.58342" lon="5.00485">
        <ele>284.882</ele>
        <time>2020-11-18T15:45:29Z</time>
      </trkpt>
      <trkpt lat="45.58325" lon="5.00499">
        <ele>284.458</ele>
        <time>2020-11-18T15:45:34Z</time>
      </trkpt>
      <trkpt lat="45.58308" lon="5.00513">
        <ele>284.287</ele>
        <time>2020-11-18T15:45:40Z</time>
      </trkpt>
      <trkpt lat="45.58295" lon="5.00522">
        <ele>283.664</ele>
        <time>2020-11-18T15:45:45Z</time>
      </trkpt>
      <trkpt lat="45.58282" lon="5.0053">
        <ele>283.405</ele>
        <time>2020-11-18T15:45:51Z</time>
      </trkpt>
      <trkpt lat="45.58268" lon="5.0054">
        <ele>283.371</ele>
        <time>2020-11-18T15:45:57Z</time>
      </trkpt>
      <trkpt lat="45.5825" lon="5.00547">
        <ele>283.603</ele>
        <time>2020-11-18T15:46:03Z</time>
      </trkpt>
      <trkpt lat="45.58235" lon="5.00557">
        <ele>284.028</ele>
        <time>2020-11-18T15:46:09Z</time>
      </trkpt>
      <trkpt lat="45.58222" lon="5.00569">
        <ele>284.116</ele>
        <time>2020-11-18T15:46:14Z</time>
      </trkpt>
      <trkpt lat="45.58207" lon="5.00578">
        <ele>284.143</ele>
        <time>2020-11-18T15:46:19Z</time>
      </trkpt>
      <trkpt lat="45.5819" lon="5.00591">
        <ele>284.284</ele>
        <time>2020-11-18T15:46:25Z</time>
      </trkpt>
      <trkpt lat="45.58173" lon="5.00605">
        <ele>284.215</ele>
        <time>2020-11-18T15:46:31Z</time>
      </trkpt>
      <trkpt lat="45.58156" lon="5.00618">
        <ele>284.638</ele>
        <time>2020-11-18T15:46:37Z</time>
      </trkpt>
      <trkpt lat="45.58142" lon="5.0063">
        <ele>284.91</ele>
        <time>2020-11-18T15:46:42Z</time>
      </trkpt>
      <trkpt lat="45.58122" lon="5.00643">
        <ele>284.885</ele>
        <time>2020-11-18T15:46:50Z</time>
      </trkpt>
      <trkpt lat="45.58104" lon="5.00655">
        <ele>284.618</ele>
        <time>2020-11-18T15:46:55Z</time>
      </trkpt>
      <trkpt lat="45.58085" lon="5.00667">
        <ele>284.16</ele>
        <time>2020-11-18T15:47:01Z</time>
      </trkpt>
      <trkpt lat="45.58067" lon="5.00678">
        <ele>285.077</ele>
        <time>2020-11-18T15:47:07Z</time>
      </trkpt>
      <trkpt lat="45.58048" lon="5.00691">
        <ele>286.302</ele>
        <time>2020-11-18T15:47:14Z</time>
      </trkpt>
      <trkpt lat="45.58034" lon="5.00699">
        <ele>287.014</ele>
        <time>2020-11-18T15:47:19Z</time>
      </trkpt>
      <trkpt lat="45.58019" lon="5.00709">
        <ele>287.74</ele>
        <time>2020-11-18T15:47:25Z</time>
      </trkpt>
      <trkpt lat="45.58007" lon="5.00716">
        <ele>288.121</ele>
        <time>2020-11-18T15:47:30Z</time>
      </trkpt>
      <trkpt lat="45.57995" lon="5.00724">
        <ele>289.24</ele>
        <time>2020-11-18T15:47:36Z</time>
      </trkpt>
      <trkpt lat="45.57984" lon="5.0073">
        <ele>291.974</ele>
        <time>2020-11-18T15:47:42Z</time>
      </trkpt>
      <trkpt lat="45.57975" lon="5.00736">
        <ele>293.948</ele>
        <time>2020-11-18T15:47:47Z</time>
      </trkpt>
      <trkpt lat="45.57966" lon="5.00744">
        <ele>295.413</ele>
        <time>2020-11-18T15:47:53Z</time>
      </trkpt>
      <trkpt lat="45.57957" lon="5.00752">
        <ele>295.979</ele>
        <time>2020-11-18T15:48:00Z</time>
      </trkpt>
      <trkpt lat="45.57951" lon="5.0076">
        <ele>297.652</ele>
        <time>2020-11-18T15:48:05Z</time>
      </trkpt>
      <trkpt lat="45.57944" lon="5.00769">
        <ele>299.741</ele>
        <time>2020-11-18T15:48:11Z</time>
      </trkpt>
      <trkpt lat="45.57937" lon="5.00778">
        <ele>301.303</ele>
        <time>2020-11-18T15:48:17Z</time>
      </trkpt>
      <trkpt lat="45.57929" lon="5.00791">
        <ele>302.676</ele>
        <time>2020-11-18T15:48:23Z</time>
      </trkpt>
      <trkpt lat="45.57922" lon="5.00803">
        <ele>304.738</ele>
        <time>2020-11-18T15:48:29Z</time>
      </trkpt>
      <trkpt lat="45.57918" lon="5.00815">
        <ele>306.643</ele>
        <time>2020-11-18T15:48:34Z</time>
      </trkpt>
      <trkpt lat="45.57917" lon="5.00831">
        <ele>307.884</ele>
        <time>2020-11-18T15:48:40Z</time>
      </trkpt>
      <trkpt lat="45.57922" lon="5.00848">
        <ele>308.602</ele>
        <time>2020-11-18T15:48:46Z</time>
      </trkpt>
      <trkpt lat="45.5793" lon="5.00865">
        <ele>309.006</ele>
        <time>2020-11-18T15:48:53Z</time>
      </trkpt>
      <trkpt lat="45.57938" lon="5.00883">
        <ele>309.587</ele>
        <time>2020-11-18T15:48:58Z</time>
      </trkpt>
      <trkpt lat="45.57945" lon="5.00902">
        <ele>309.643</ele>
        <time>2020-11-18T15:49:04Z</time>
      </trkpt>
      <trkpt lat="45.5795" lon="5.00916">
        <ele>310.544</ele>
        <time>2020-11-18T15:49:09Z</time>
      </trkpt>
      <trkpt lat="45.57956" lon="5.00932">
        <ele>311.79</ele>
        <time>2020-11-18T15:49:15Z</time>
      </trkpt>
      <trkpt lat="45.57962" lon="5.00948">
        <ele>311.202</ele>
        <time>2020-11-18T15:49:21Z</time>
      </trkpt>
      <trkpt lat="45.57967" lon="5.0096">
        <ele>310.721</ele>
        <time>2020-11-18T15:49:26Z</time>
      </trkpt>
      <trkpt lat="45.57973" lon="5.00974">
        <ele>312.348</ele>
        <time>2020-11-18T15:49:32Z</time>
      </trkpt>
      <trkpt lat="45.57978" lon="5.00987">
        <ele>312.223</ele>
        <time>2020-11-18T15:49:37Z</time>
      </trkpt>
      <trkpt lat="45.57984" lon="5.01001">
        <ele>311.945</ele>
        <time>2020-11-18T15:49:43Z</time>
      </trkpt>
      <trkpt lat="45.57991" lon="5.01021">
        <ele>312.706</ele>
        <time>2020-11-18T15:49:50Z</time>
      </trkpt>
      <trkpt lat="45.57998" lon="5.01036">
        <ele>312.597</ele>
        <time>2020-11-18T15:49:56Z</time>
      </trkpt>
      <trkpt lat="45.58005" lon="5.01054">
        <ele>312.072</ele>
        <time>2020-11-18T15:50:03Z</time>
      </trkpt>
      <trkpt lat="45.58011" lon="5.01071">
        <ele>312.079</ele>
        <time>2020-11-18T15:50:08Z</time>
      </trkpt>
      <trkpt lat="45.58015" lon="5.01084">
        <ele>312.893</ele>
        <time>2020-11-18T15:50:14Z</time>
      </trkpt>
      <trkpt lat="45.58022" lon="5.01101">
        <ele>312.058</ele>
        <time>2020-11-18T15:50:19Z</time>
      </trkpt>
      <trkpt lat="45.5803" lon="5.01118">
        <ele>311.906</ele>
        <time>2020-11-18T15:50:25Z</time>
      </trkpt>
      <trkpt lat="45.58035" lon="5.01132">
        <ele>311.919</ele>
        <time>2020-11-18T15:50:30Z</time>
      </trkpt>
      <trkpt lat="45.58042" lon="5.01149">
        <ele>311.989</ele>
        <time>2020-11-18T15:50:36Z</time>
      </trkpt>
      <trkpt lat="45.58049" lon="5.01165">
        <ele>312.216</ele>
        <time>2020-11-18T15:50:42Z</time>
      </trkpt>
      <trkpt lat="45.58055" lon="5.01181">
        <ele>312.331</ele>
        <time>2020-11-18T15:50:48Z</time>
      </trkpt>
      <trkpt lat="45.58061" lon="5.01196">
        <ele>312.932</ele>
        <time>2020-11-18T15:50:54Z</time>
      </trkpt>
      <trkpt lat="45.58067" lon="5.0121">
        <ele>313.311</ele>
        <time>2020-11-18T15:51:00Z</time>
      </trkpt>
      <trkpt lat="45.58073" lon="5.01225">
        <ele>313.412</ele>
        <time>2020-11-18T15:51:06Z</time>
      </trkpt>
      <trkpt lat="45.58078" lon="5.01239">
        <ele>313.767</ele>
        <time>2020-11-18T15:51:11Z</time>
      </trkpt>
      <trkpt lat="45.58084" lon="5.01255">
        <ele>313.374</ele>
        <time>2020-11-18T15:51:17Z</time>
      </trkpt>
      <trkpt lat="45.58092" lon="5.01271">
        <ele>312.975</ele>
        <time>2020-11-18T15:51:23Z</time>
      </trkpt>
      <trkpt lat="45.58098" lon="5.01283">
        <ele>312.578</ele>
        <time>2020-11-18T15:51:29Z</time>
      </trkpt>
      <trkpt lat="45.58107" lon="5.01307">
        <ele>311.705</ele>
        <time>2020-11-18T15:51:34Z</time>
      </trkpt>
      <trkpt lat="45.58115" lon="5.01333">
        <ele>310.446</ele>
        <time>2020-11-18T15:51:41Z</time>
      </trkpt>
      <trkpt lat="45.58122" lon="5.01352">
        <ele>310.12</ele>
        <time>2020-11-18T15:51:46Z</time>
      </trkpt>
      <trkpt lat="45.58129" lon="5.01371">
        <ele>310.18</ele>
        <time>2020-11-18T15:51:52Z</time>
      </trkpt>
      <trkpt lat="45.58139" lon="5.01399">
        <ele>309.672</ele>
        <time>2020-11-18T15:51:58Z</time>
      </trkpt>
      <trkpt lat="45.58153" lon="5.0144">
        <ele>308.826</ele>
        <time>2020-11-18T15:52:04Z</time>
      </trkpt>
      <trkpt lat="45.58154" lon="5.01459">
        <ele>308.67</ele>
        <time>2020-11-18T15:52:10Z</time>
      </trkpt>
      <trkpt lat="45.58152" lon="5.01472">
        <ele>308.488</ele>
        <time>2020-11-18T15:52:15Z</time>
      </trkpt>
      <trkpt lat="45.5815" lon="5.01489">
        <ele>308.288</ele>
        <time>2020-11-18T15:52:23Z</time>
      </trkpt>
      <trkpt lat="45.5815" lon="5.01506">
        <ele>307.662</ele>
        <time>2020-11-18T15:52:28Z</time>
      </trkpt>
      <trkpt lat="45.58152" lon="5.01521">
        <ele>307.405</ele>
        <time>2020-11-18T15:52:33Z</time>
      </trkpt>
      <trkpt lat="45.58151" lon="5.01535">
        <ele>307.786</ele>
        <time>2020-11-18T15:52:39Z</time>
      </trkpt>
      <trkpt lat="45.5815" lon="5.0155">
        <ele>308.77</ele>
        <time>2020-11-18T15:52:44Z</time>
      </trkpt>
      <trkpt lat="45.58146" lon="5.01556">
        <ele>310.23</ele>
        <time>2020-11-18T15:52:50Z</time>
      </trkpt>
      <trkpt lat="45.58131" lon="5.01558">
        <ele>313.57</ele>
        <time>2020-11-18T15:52:56Z</time>
      </trkpt>
      <trkpt lat="45.58121" lon="5.01561">
        <ele>315.481</ele>
        <time>2020-11-18T15:53:02Z</time>
      </trkpt>
      <trkpt lat="45.58114" lon="5.01563">
        <ele>317.426</ele>
        <time>2020-11-18T15:53:07Z</time>
      </trkpt>
      <trkpt lat="45.58105" lon="5.01566">
        <ele>320.268</ele>
        <time>2020-11-18T15:53:13Z</time>
      </trkpt>
      <trkpt lat="45.58095" lon="5.01569">
        <ele>322.083</ele>
        <time>2020-11-18T15:53:20Z</time>
      </trkpt>
      <trkpt lat="45.58084" lon="5.01569">
        <ele>322.877</ele>
        <time>2020-11-18T15:53:26Z</time>
      </trkpt>
      <trkpt lat="45.58073" lon="5.0157">
        <ele>324.415</ele>
        <time>2020-11-18T15:53:32Z</time>
      </trkpt>
      <trkpt lat="45.58066" lon="5.01572">
        <ele>326.032</ele>
        <time>2020-11-18T15:53:38Z</time>
      </trkpt>
      <trkpt lat="45.58058" lon="5.01578">
        <ele>327.579</ele>
        <time>2020-11-18T15:53:43Z</time>
      </trkpt>
      <trkpt lat="45.58051" lon="5.01584">
        <ele>329.917</ele>
        <time>2020-11-18T15:53:49Z</time>
      </trkpt>
      <trkpt lat="45.58044" lon="5.01592">
        <ele>332.485</ele>
        <time>2020-11-18T15:53:55Z</time>
      </trkpt>
      <trkpt lat="45.58039" lon="5.01599">
        <ele>333.396</ele>
        <time>2020-11-18T15:54:01Z</time>
      </trkpt>
      <trkpt lat="45.58034" lon="5.01609">
        <ele>333.899</ele>
        <time>2020-11-18T15:54:06Z</time>
      </trkpt>
      <trkpt lat="45.58029" lon="5.01614">
        <ele>333.689</ele>
        <time>2020-11-18T15:54:11Z</time>
      </trkpt>
      <trkpt lat="45.58025" lon="5.01621">
        <ele>334.845</ele>
        <time>2020-11-18T15:54:17Z</time>
      </trkpt>
      <trkpt lat="45.58018" lon="5.01629">
        <ele>336.002</ele>
        <time>2020-11-18T15:54:22Z</time>
      </trkpt>
      <trkpt lat="45.58013" lon="5.01635">
        <ele>336.69</ele>
        <time>2020-11-18T15:54:28Z</time>
      </trkpt>
      <trkpt lat="45.58006" lon="5.01641">
        <ele>338.635</ele>
        <time>2020-11-18T15:54:33Z</time>
      </trkpt>
      <trkpt lat="45.57999" lon="5.01646">
        <ele>339.53</ele>
        <time>2020-11-18T15:54:40Z</time>
      </trkpt>
      <trkpt lat="45.57992" lon="5.01651">
        <ele>341.124</ele>
        <time>2020-11-18T15:54:45Z</time>
      </trkpt>
      <trkpt lat="45.57985" lon="5.01657">
        <ele>342.667</ele>
        <time>2020-11-18T15:54:50Z</time>
      </trkpt>
      <trkpt lat="45.57979" lon="5.01662">
        <ele>343.234</ele>
        <time>2020-11-18T15:54:56Z</time>
      </trkpt>
      <trkpt lat="45.57975" lon="5.01668">
        <ele>344.127</ele>
        <time>2020-11-18T15:55:01Z</time>
      </trkpt>
      <trkpt lat="45.57969" lon="5.01676">
        <ele>344.702</ele>
        <time>2020-11-18T15:55:06Z</time>
      </trkpt>
      <trkpt lat="45.57962" lon="5.01684">
        <ele>344.948</ele>
        <time>2020-11-18T15:55:12Z</time>
      </trkpt>
      <trkpt lat="45.57956" lon="5.0169">
        <ele>346.229</ele>
        <time>2020-11-18T15:55:17Z</time>
      </trkpt>
      <trkpt lat="45.5795" lon="5.01696">
        <ele>347.735</ele>
        <time>2020-11-18T15:55:22Z</time>
      </trkpt>
      <trkpt lat="45.57944" lon="5.01702">
        <ele>348.557</ele>
        <time>2020-11-18T15:55:28Z</time>
      </trkpt>
      <trkpt lat="45.57937" lon="5.01711">
        <ele>348.812</ele>
        <time>2020-11-18T15:55:33Z</time>
      </trkpt>
      <trkpt lat="45.5793" lon="5.01721">
        <ele>348.648</ele>
        <time>2020-11-18T15:55:39Z</time>
      </trkpt>
      <trkpt lat="45.57924" lon="5.01728">
        <ele>348.461</ele>
        <time>2020-11-18T15:55:45Z</time>
      </trkpt>
      <trkpt lat="45.57917" lon="5.01738">
        <ele>348.45</ele>
        <time>2020-11-18T15:55:50Z</time>
      </trkpt>
      <trkpt lat="45.57917" lon="5.01751">
        <ele>348.74</ele>
        <time>2020-11-18T15:55:56Z</time>
      </trkpt>
      <trkpt lat="45.57926" lon="5.01764">
        <ele>349.22</ele>
        <time>2020-11-18T15:56:02Z</time>
      </trkpt>
      <trkpt lat="45.57937" lon="5.01781">
        <ele>349.534</ele>
        <time>2020-11-18T15:56:09Z</time>
      </trkpt>
      <trkpt lat="45.57947" lon="5.01795">
        <ele>349.394</ele>
        <time>2020-11-18T15:56:15Z</time>
      </trkpt>
      <trkpt lat="45.57956" lon="5.01809">
        <ele>349.805</ele>
        <time>2020-11-18T15:56:20Z</time>
      </trkpt>
      <trkpt lat="45.57969" lon="5.01827">
        <ele>350.194</ele>
        <time>2020-11-18T15:56:26Z</time>
      </trkpt>
      <trkpt lat="45.57981" lon="5.01844">
        <ele>350.474</ele>
        <time>2020-11-18T15:56:32Z</time>
      </trkpt>
      <trkpt lat="45.57994" lon="5.01862">
        <ele>350.74</ele>
        <time>2020-11-18T15:56:37Z</time>
      </trkpt>
      <trkpt lat="45.58008" lon="5.01882">
        <ele>350.497</ele>
        <time>2020-11-18T15:56:43Z</time>
      </trkpt>
      <trkpt lat="45.58017" lon="5.01896">
        <ele>350.664</ele>
        <time>2020-11-18T15:56:49Z</time>
      </trkpt>
      <trkpt lat="45.58029" lon="5.01913">
        <ele>351.198</ele>
        <time>2020-11-18T15:56:54Z</time>
      </trkpt>
      <trkpt lat="45.58042" lon="5.01928">
        <ele>351.885</ele>
        <time>2020-11-18T15:57:00Z</time>
      </trkpt>
      <trkpt lat="45.58054" lon="5.01946">
        <ele>352.323</ele>
        <time>2020-11-18T15:57:06Z</time>
      </trkpt>
      <trkpt lat="45.58064" lon="5.01962">
        <ele>353.242</ele>
        <time>2020-11-18T15:57:11Z</time>
      </trkpt>
      <trkpt lat="45.58077" lon="5.0198">
        <ele>354.661</ele>
        <time>2020-11-18T15:57:18Z</time>
      </trkpt>
      <trkpt lat="45.58088" lon="5.01996">
        <ele>356.248</ele>
        <time>2020-11-18T15:57:24Z</time>
      </trkpt>
      <trkpt lat="45.58101" lon="5.02012">
        <ele>356.837</ele>
        <time>2020-11-18T15:57:30Z</time>
      </trkpt>
      <trkpt lat="45.58113" lon="5.02029">
        <ele>356.622</ele>
        <time>2020-11-18T15:57:36Z</time>
      </trkpt>
      <trkpt lat="45.58125" lon="5.02043">
        <ele>357.413</ele>
        <time>2020-11-18T15:57:42Z</time>
      </trkpt>
      <trkpt lat="45.58134" lon="5.02053">
        <ele>358.799</ele>
        <time>2020-11-18T15:57:47Z</time>
      </trkpt>
      <trkpt lat="45.58142" lon="5.02063">
        <ele>359.517</ele>
        <time>2020-11-18T15:57:52Z</time>
      </trkpt>
      <trkpt lat="45.58154" lon="5.02079">
        <ele>359.421</ele>
        <time>2020-11-18T15:57:58Z</time>
      </trkpt>
      <trkpt lat="45.58166" lon="5.02097">
        <ele>358.969</ele>
        <time>2020-11-18T15:58:03Z</time>
      </trkpt>
      <trkpt lat="45.58183" lon="5.02121">
        <ele>358.81</ele>
        <time>2020-11-18T15:58:09Z</time>
      </trkpt>
      <trkpt lat="45.58199" lon="5.02141">
        <ele>358.171</ele>
        <time>2020-11-18T15:58:14Z</time>
      </trkpt>
      <trkpt lat="45.58221" lon="5.02162">
        <ele>357.165</ele>
        <time>2020-11-18T15:58:21Z</time>
      </trkpt>
      <trkpt lat="45.58248" lon="5.02194">
        <ele>355.675</ele>
        <time>2020-11-18T15:58:26Z</time>
      </trkpt>
      <trkpt lat="45.5828" lon="5.02229">
        <ele>352.168</ele>
        <time>2020-11-18T15:58:32Z</time>
      </trkpt>
      <trkpt lat="45.58308" lon="5.02255">
        <ele>349.012</ele>
        <time>2020-11-18T15:58:38Z</time>
      </trkpt>
      <trkpt lat="45.58324" lon="5.02277">
        <ele>346.748</ele>
        <time>2020-11-18T15:58:44Z</time>
      </trkpt>
      <trkpt lat="45.58339" lon="5.02292">
        <ele>344.297</ele>
        <time>2020-11-18T15:58:49Z</time>
      </trkpt>
      <trkpt lat="45.58358" lon="5.02314">
        <ele>342.907</ele>
        <time>2020-11-18T15:58:55Z</time>
      </trkpt>
      <trkpt lat="45.58372" lon="5.02337">
        <ele>341.937</ele>
        <time>2020-11-18T15:59:01Z</time>
      </trkpt>
      <trkpt lat="45.58386" lon="5.02368">
        <ele>341.823</ele>
        <time>2020-11-18T15:59:06Z</time>
      </trkpt>
      <trkpt lat="45.584" lon="5.024">
        <ele>342.024</ele>
        <time>2020-11-18T15:59:12Z</time>
      </trkpt>
      <trkpt lat="45.58412" lon="5.02432">
        <ele>341.243</ele>
        <time>2020-11-18T15:59:18Z</time>
      </trkpt>
      <trkpt lat="45.58415" lon="5.02461">
        <ele>339.547</ele>
        <time>2020-11-18T15:59:23Z</time>
      </trkpt>
      <trkpt lat="45.58411" lon="5.02502">
        <ele>338.223</ele>
        <time>2020-11-18T15:59:30Z</time>
      </trkpt>
      <trkpt lat="45.5841" lon="5.02532">
        <ele>336.967</ele>
        <time>2020-11-18T15:59:35Z</time>
      </trkpt>
      <trkpt lat="45.58409" lon="5.02565">
        <ele>335.354</ele>
        <time>2020-11-18T15:59:41Z</time>
      </trkpt>
      <trkpt lat="45.58409" lon="5.02598">
        <ele>334.388</ele>
        <time>2020-11-18T15:59:47Z</time>
      </trkpt>
      <trkpt lat="45.58407" lon="5.02628">
        <ele>334.915</ele>
        <time>2020-11-18T15:59:52Z</time>
      </trkpt>
      <trkpt lat="45.58403" lon="5.02665">
        <ele>332.957</ele>
        <time>2020-11-18T15:59:58Z</time>
      </trkpt>
      <trkpt lat="45.58399" lon="5.02694">
        <ele>332.087</ele>
        <time>2020-11-18T16:00:04Z</time>
      </trkpt>
      <trkpt lat="45.58396" lon="5.02727">
        <ele>330.37</ele>
        <time>2020-11-18T16:00:09Z</time>
      </trkpt>
      <trkpt lat="45.58388" lon="5.02748">
        <ele>330.168</ele>
        <time>2020-11-18T16:00:17Z</time>
      </trkpt>
      <trkpt lat="45.58368" lon="5.02749">
        <ele>331.399</ele>
        <time>2020-11-18T16:00:22Z</time>
      </trkpt>
      <trkpt lat="45.58349" lon="5.02754">
        <ele>331.367</ele>
        <time>2020-11-18T16:00:27Z</time>
      </trkpt>
      <trkpt lat="45.58322" lon="5.0277">
        <ele>330.114</ele>
        <time>2020-11-18T16:00:33Z</time>
      </trkpt>
      <trkpt lat="45.58296" lon="5.02791">
        <ele>329.229</ele>
        <time>2020-11-18T16:00:38Z</time>
      </trkpt>
      <trkpt lat="45.58264" lon="5.02821">
        <ele>326.04</ele>
        <time>2020-11-18T16:00:44Z</time>
      </trkpt>
      <trkpt lat="45.58237" lon="5.02817">
        <ele>324.365</ele>
        <time>2020-11-18T16:00:49Z</time>
      </trkpt>
      <trkpt lat="45.58213" lon="5.0281">
        <ele>322.467</ele>
        <time>2020-11-18T16:00:54Z</time>
      </trkpt>
      <trkpt lat="45.58184" lon="5.02796">
        <ele>319.279</ele>
        <time>2020-11-18T16:01:00Z</time>
      </trkpt>
      <trkpt lat="45.5816" lon="5.02777">
        <ele>316.666</ele>
        <time>2020-11-18T16:01:06Z</time>
      </trkpt>
      <trkpt lat="45.58152" lon="5.02741">
        <ele>314.236</ele>
        <time>2020-11-18T16:01:12Z</time>
      </trkpt>
      <trkpt lat="45.58146" lon="5.02709">
        <ele>312.557</ele>
        <time>2020-11-18T16:01:17Z</time>
      </trkpt>
      <trkpt lat="45.58139" lon="5.02678">
        <ele>311.267</ele>
        <time>2020-11-18T16:01:22Z</time>
      </trkpt>
      <trkpt lat="45.58131" lon="5.02647">
        <ele>310.667</ele>
        <time>2020-11-18T16:01:28Z</time>
      </trkpt>
      <trkpt lat="45.58125" lon="5.02622">
        <ele>309.98</ele>
        <time>2020-11-18T16:01:33Z</time>
      </trkpt>
      <trkpt lat="45.58117" lon="5.02593">
        <ele>310.885</ele>
        <time>2020-11-18T16:01:39Z</time>
      </trkpt>
      <trkpt lat="45.5811" lon="5.02569">
        <ele>311.195</ele>
        <time>2020-11-18T16:01:44Z</time>
      </trkpt>
      <trkpt lat="45.58102" lon="5.02531">
        <ele>309.923</ele>
        <time>2020-11-18T16:01:51Z</time>
      </trkpt>
      <trkpt lat="45.58095" lon="5.02503">
        <ele>310.149</ele>
        <time>2020-11-18T16:01:56Z</time>
      </trkpt>
      <trkpt lat="45.58086" lon="5.02472">
        <ele>310.662</ele>
        <time>2020-11-18T16:02:02Z</time>
      </trkpt>
      <trkpt lat="45.58078" lon="5.02443">
        <ele>310.339</ele>
        <time>2020-11-18T16:02:07Z</time>
      </trkpt>
      <trkpt lat="45.58068" lon="5.02408">
        <ele>310.117</ele>
        <time>2020-11-18T16:02:13Z</time>
      </trkpt>
      <trkpt lat="45.58057" lon="5.0238">
        <ele>309.549</ele>
        <time>2020-11-18T16:02:19Z</time>
      </trkpt>
      <trkpt lat="45.58046" lon="5.02353">
        <ele>308.992</ele>
        <time>2020-11-18T16:02:25Z</time>
      </trkpt>
      <trkpt lat="45.58035" lon="5.02332">
        <ele>308.722</ele>
        <time>2020-11-18T16:02:30Z</time>
      </trkpt>
      <trkpt lat="45.58021" lon="5.02304">
        <ele>308.843</ele>
        <time>2020-11-18T16:02:36Z</time>
      </trkpt>
      <trkpt lat="45.58008" lon="5.02279">
        <ele>308.614</ele>
        <time>2020-11-18T16:02:41Z</time>
      </trkpt>
      <trkpt lat="45.57993" lon="5.02253">
        <ele>307.554</ele>
        <time>2020-11-18T16:02:47Z</time>
      </trkpt>
      <trkpt lat="45.5798" lon="5.02234">
        <ele>307.136</ele>
        <time>2020-11-18T16:02:52Z</time>
      </trkpt>
      <trkpt lat="45.57965" lon="5.02217">
        <ele>306.6</ele>
        <time>2020-11-18T16:02:57Z</time>
      </trkpt>
      <trkpt lat="45.57938" lon="5.02224">
        <ele>305.911</ele>
        <time>2020-11-18T16:03:04Z</time>
      </trkpt>
      <trkpt lat="45.57912" lon="5.02235">
        <ele>306.14</ele>
        <time>2020-11-18T16:03:11Z</time>
      </trkpt>
      <trkpt lat="45.57888" lon="5.02248">
        <ele>305.87</ele>
        <time>2020-11-18T16:03:18Z</time>
      </trkpt>
      <trkpt lat="45.57869" lon="5.02257">
        <ele>306.208</ele>
        <time>2020-11-18T16:03:24Z</time>
      </trkpt>
      <trkpt lat="45.57846" lon="5.02266">
        <ele>305.641</ele>
        <time>2020-11-18T16:03:29Z</time>
      </trkpt>
      <trkpt lat="45.57819" lon="5.02278">
        <ele>305.869</ele>
        <time>2020-11-18T16:03:36Z</time>
      </trkpt>
      <trkpt lat="45.57799" lon="5.02287">
        <ele>305.861</ele>
        <time>2020-11-18T16:03:41Z</time>
      </trkpt>
      <trkpt lat="45.57779" lon="5.02299">
        <ele>305.711</ele>
        <time>2020-11-18T16:03:46Z</time>
      </trkpt>
      <trkpt lat="45.57762" lon="5.02316">
        <ele>305.633</ele>
        <time>2020-11-18T16:03:51Z</time>
      </trkpt>
      <trkpt lat="45.57746" lon="5.02339">
        <ele>305.521</ele>
        <time>2020-11-18T16:03:58Z</time>
      </trkpt>
      <trkpt lat="45.57732" lon="5.02356">
        <ele>304.56</ele>
        <time>2020-11-18T16:04:03Z</time>
      </trkpt>
      <trkpt lat="45.57713" lon="5.02368">
        <ele>303.601</ele>
        <time>2020-11-18T16:04:08Z</time>
      </trkpt>
      <trkpt lat="45.5769" lon="5.02373">
        <ele>303.783</ele>
        <time>2020-11-18T16:04:14Z</time>
      </trkpt>
      <trkpt lat="45.57671" lon="5.02376">
        <ele>304.165</ele>
        <time>2020-11-18T16:04:19Z</time>
      </trkpt>
      <trkpt lat="45.57654" lon="5.02381">
        <ele>304.555</ele>
        <time>2020-11-18T16:04:24Z</time>
      </trkpt>
      <trkpt lat="45.57634" lon="5.02388">
        <ele>305.098</ele>
        <time>2020-11-18T16:04:30Z</time>
      </trkpt>
      <trkpt lat="45.57618" lon="5.02394">
        <ele>305.78</ele>
        <time>2020-11-18T16:04:35Z</time>
      </trkpt>
      <trkpt lat="45.57599" lon="5.02403">
        <ele>306.676</ele>
        <time>2020-11-18T16:04:41Z</time>
      </trkpt>
      <trkpt lat="45.5758" lon="5.02413">
        <ele>306.853</ele>
        <time>2020-11-18T16:04:47Z</time>
      </trkpt>
      <trkpt lat="45.57564" lon="5.02419">
        <ele>306.495</ele>
        <time>2020-11-18T16:04:52Z</time>
      </trkpt>
      <trkpt lat="45.57547" lon="5.02426">
        <ele>306.184</ele>
        <time>2020-11-18T16:04:58Z</time>
      </trkpt>
      <trkpt lat="45.57529" lon="5.02434">
        <ele>306.362</ele>
        <time>2020-11-18T16:05:04Z</time>
      </trkpt>
      <trkpt lat="45.57512" lon="5.02443">
        <ele>305.793</ele>
        <time>2020-11-18T16:05:10Z</time>
      </trkpt>
      <trkpt lat="45.57495" lon="5.02451">
        <ele>305.673</ele>
        <time>2020-11-18T16:05:16Z</time>
      </trkpt>
      <trkpt lat="45.57475" lon="5.02459">
        <ele>306.81</ele>
        <time>2020-11-18T16:05:22Z</time>
      </trkpt>
      <trkpt lat="45.5746" lon="5.02466">
        <ele>307.914</ele>
        <time>2020-11-18T16:05:27Z</time>
      </trkpt>
      <trkpt lat="45.57445" lon="5.02472">
        <ele>308.606</ele>
        <time>2020-11-18T16:05:32Z</time>
      </trkpt>
      <trkpt lat="45.5743" lon="5.02478">
        <ele>308.97</ele>
        <time>2020-11-18T16:05:37Z</time>
      </trkpt>
      <trkpt lat="45.57412" lon="5.02485">
        <ele>309.135</ele>
        <time>2020-11-18T16:05:43Z</time>
      </trkpt>
      <trkpt lat="45.57397" lon="5.02491">
        <ele>308.928</ele>
        <time>2020-11-18T16:05:48Z</time>
      </trkpt>
      <trkpt lat="45.57382" lon="5.02498">
        <ele>309.46</ele>
        <time>2020-11-18T16:05:53Z</time>
      </trkpt>
      <trkpt lat="45.57367" lon="5.02504">
        <ele>310.293</ele>
        <time>2020-11-18T16:05:58Z</time>
      </trkpt>
      <trkpt lat="45.5735" lon="5.02511">
        <ele>310.996</ele>
        <time>2020-11-18T16:06:04Z</time>
      </trkpt>
      <trkpt lat="45.57336" lon="5.02518">
        <ele>311.488</ele>
        <time>2020-11-18T16:06:09Z</time>
      </trkpt>
      <trkpt lat="45.57323" lon="5.02524">
        <ele>312.151</ele>
        <time>2020-11-18T16:06:14Z</time>
      </trkpt>
      <trkpt lat="45.57305" lon="5.02531">
        <ele>312.143</ele>
        <time>2020-11-18T16:06:20Z</time>
      </trkpt>
      <trkpt lat="45.57291" lon="5.02535">
        <ele>312.378</ele>
        <time>2020-11-18T16:06:26Z</time>
      </trkpt>
      <trkpt lat="45.5728" lon="5.02536">
        <ele>312.099</ele>
        <time>2020-11-18T16:06:31Z</time>
      </trkpt>
      <trkpt lat="45.57276" lon="5.02528">
        <ele>311.953</ele>
        <time>2020-11-18T16:06:47Z</time>
      </trkpt>
      <trkpt lat="45.57261" lon="5.02496">
        <ele>311.72</ele>
        <time>2020-11-18T16:06:52Z</time>
      </trkpt>
      <trkpt lat="45.57247" lon="5.02458">
        <ele>310.967</ele>
        <time>2020-11-18T16:06:58Z</time>
      </trkpt>
      <trkpt lat="45.57234" lon="5.02434">
        <ele>310.469</ele>
        <time>2020-11-18T16:07:04Z</time>
      </trkpt>
      <trkpt lat="45.57221" lon="5.02456">
        <ele>307.997</ele>
        <time>2020-11-18T16:07:10Z</time>
      </trkpt>
      <trkpt lat="45.5722" lon="5.02486">
        <ele>307.435</ele>
        <time>2020-11-18T16:07:15Z</time>
      </trkpt>
      <trkpt lat="45.57214" lon="5.0251">
        <ele>307.132</ele>
        <time>2020-11-18T16:07:21Z</time>
      </trkpt>
      <trkpt lat="45.57209" lon="5.02532">
        <ele>306.331</ele>
        <time>2020-11-18T16:07:28Z</time>
      </trkpt>
      <trkpt lat="45.57201" lon="5.02567">
        <ele>306.484</ele>
        <time>2020-11-18T16:07:35Z</time>
      </trkpt>
      <trkpt lat="45.57196" lon="5.02589">
        <ele>306.59</ele>
        <time>2020-11-18T16:07:40Z</time>
      </trkpt>
      <trkpt lat="45.5719" lon="5.02611">
        <ele>307.302</ele>
        <time>2020-11-18T16:07:45Z</time>
      </trkpt>
      <trkpt lat="45.57184" lon="5.02638">
        <ele>306.993</ele>
        <time>2020-11-18T16:07:51Z</time>
      </trkpt>
      <trkpt lat="45.57179" lon="5.02665">
        <ele>306.609</ele>
        <time>2020-11-18T16:07:57Z</time>
      </trkpt>
      <trkpt lat="45.57172" lon="5.02697">
        <ele>306.306</ele>
        <time>2020-11-18T16:08:04Z</time>
      </trkpt>
      <trkpt lat="45.57165" lon="5.02719">
        <ele>306.923</ele>
        <time>2020-11-18T16:08:09Z</time>
      </trkpt>
      <trkpt lat="45.57157" lon="5.02746">
        <ele>307.616</ele>
        <time>2020-11-18T16:08:15Z</time>
      </trkpt>
      <trkpt lat="45.57151" lon="5.02768">
        <ele>308.261</ele>
        <time>2020-11-18T16:08:20Z</time>
      </trkpt>
      <trkpt lat="45.57148" lon="5.02791">
        <ele>309.047</ele>
        <time>2020-11-18T16:08:25Z</time>
      </trkpt>
      <trkpt lat="45.57147" lon="5.02818">
        <ele>309.199</ele>
        <time>2020-11-18T16:08:31Z</time>
      </trkpt>
      <trkpt lat="45.57146" lon="5.02842">
        <ele>309.668</ele>
        <time>2020-11-18T16:08:36Z</time>
      </trkpt>
      <trkpt lat="45.57145" lon="5.02871">
        <ele>309.087</ele>
        <time>2020-11-18T16:08:42Z</time>
      </trkpt>
      <trkpt lat="45.57145" lon="5.02893">
        <ele>309.543</ele>
        <time>2020-11-18T16:08:47Z</time>
      </trkpt>
      <trkpt lat="45.57144" lon="5.02921">
        <ele>309.93</ele>
        <time>2020-11-18T16:08:53Z</time>
      </trkpt>
      <trkpt lat="45.57143" lon="5.02949">
        <ele>309.998</ele>
        <time>2020-11-18T16:08:59Z</time>
      </trkpt>
      <trkpt lat="45.57143" lon="5.02972">
        <ele>310.337</ele>
        <time>2020-11-18T16:09:04Z</time>
      </trkpt>
      <trkpt lat="45.5714" lon="5.03002">
        <ele>310.907</ele>
        <time>2020-11-18T16:09:10Z</time>
      </trkpt>
      <trkpt lat="45.57139" lon="5.03031">
        <ele>311.233</ele>
        <time>2020-11-18T16:09:16Z</time>
      </trkpt>
      <trkpt lat="45.57136" lon="5.03066">
        <ele>312.132</ele>
        <time>2020-11-18T16:09:23Z</time>
      </trkpt>
      <trkpt lat="45.57135" lon="5.0309">
        <ele>311.92</ele>
        <time>2020-11-18T16:09:28Z</time>
      </trkpt>
      <trkpt lat="45.57133" lon="5.03116">
        <ele>312.885</ele>
        <time>2020-11-18T16:09:34Z</time>
      </trkpt>
      <trkpt lat="45.57129" lon="5.03142">
        <ele>312.923</ele>
        <time>2020-11-18T16:09:40Z</time>
      </trkpt>
      <trkpt lat="45.57126" lon="5.0317">
        <ele>312.928</ele>
        <time>2020-11-18T16:09:46Z</time>
      </trkpt>
      <trkpt lat="45.57134" lon="5.03189">
        <ele>312.173</ele>
        <time>2020-11-18T16:09:51Z</time>
      </trkpt>
      <trkpt lat="45.57149" lon="5.03206">
        <ele>312.653</ele>
        <time>2020-11-18T16:09:58Z</time>
      </trkpt>
      <trkpt lat="45.57167" lon="5.03219">
        <ele>313.449</ele>
        <time>2020-11-18T16:10:03Z</time>
      </trkpt>
      <trkpt lat="45.5718" lon="5.03231">
        <ele>314.651</ele>
        <time>2020-11-18T16:10:08Z</time>
      </trkpt>
      <trkpt lat="45.57195" lon="5.03253">
        <ele>315.726</ele>
        <time>2020-11-18T16:10:16Z</time>
      </trkpt>
      <trkpt lat="45.57205" lon="5.03275">
        <ele>315.838</ele>
        <time>2020-11-18T16:10:21Z</time>
      </trkpt>
      <trkpt lat="45.57216" lon="5.03298">
        <ele>315.65</ele>
        <time>2020-11-18T16:10:27Z</time>
      </trkpt>
      <trkpt lat="45.57228" lon="5.03325">
        <ele>316.213</ele>
        <time>2020-11-18T16:10:34Z</time>
      </trkpt>
      <trkpt lat="45.57237" lon="5.03348">
        <ele>316.414</ele>
        <time>2020-11-18T16:10:40Z</time>
      </trkpt>
      <trkpt lat="45.57248" lon="5.03371">
        <ele>316.907</ele>
        <time>2020-11-18T16:10:46Z</time>
      </trkpt>
      <trkpt lat="45.57256" lon="5.03391">
        <ele>316.856</ele>
        <time>2020-11-18T16:10:51Z</time>
      </trkpt>
      <trkpt lat="45.57265" lon="5.03412">
        <ele>316.397</ele>
        <time>2020-11-18T16:10:56Z</time>
      </trkpt>
      <trkpt lat="45.57277" lon="5.03435">
        <ele>315.782</ele>
        <time>2020-11-18T16:11:02Z</time>
      </trkpt>
      <trkpt lat="45.57285" lon="5.03454">
        <ele>315.842</ele>
        <time>2020-11-18T16:11:07Z</time>
      </trkpt>
      <trkpt lat="45.57296" lon="5.03476">
        <ele>315.49</ele>
        <time>2020-11-18T16:11:13Z</time>
      </trkpt>
      <trkpt lat="45.57305" lon="5.03496">
        <ele>315.692</ele>
        <time>2020-11-18T16:11:18Z</time>
      </trkpt>
      <trkpt lat="45.57317" lon="5.03519">
        <ele>316.533</ele>
        <time>2020-11-18T16:11:24Z</time>
      </trkpt>
      <trkpt lat="45.57327" lon="5.03543">
        <ele>316.733</ele>
        <time>2020-11-18T16:11:30Z</time>
      </trkpt>
      <trkpt lat="45.57338" lon="5.03566">
        <ele>316.75</ele>
        <time>2020-11-18T16:11:36Z</time>
      </trkpt>
      <trkpt lat="45.57348" lon="5.0359">
        <ele>317.037</ele>
        <time>2020-11-18T16:11:42Z</time>
      </trkpt>
      <trkpt lat="45.5736" lon="5.03613">
        <ele>317.261</ele>
        <time>2020-11-18T16:11:48Z</time>
      </trkpt>
      <trkpt lat="45.57369" lon="5.03634">
        <ele>316.209</ele>
        <time>2020-11-18T16:11:53Z</time>
      </trkpt>
      <trkpt lat="45.57387" lon="5.03667">
        <ele>315.208</ele>
        <time>2020-11-18T16:12:01Z</time>
      </trkpt>
      <trkpt lat="45.57399" lon="5.03692">
        <ele>315.243</ele>
        <time>2020-11-18T16:12:08Z</time>
      </trkpt>
      <trkpt lat="45.5741" lon="5.03718">
        <ele>316.036</ele>
        <time>2020-11-18T16:12:13Z</time>
      </trkpt>
      <trkpt lat="45.57416" lon="5.0374">
        <ele>316.283</ele>
        <time>2020-11-18T16:12:19Z</time>
      </trkpt>
      <trkpt lat="45.57401" lon="5.03745">
        <ele>318.09</ele>
        <time>2020-11-18T16:12:25Z</time>
      </trkpt>
      <trkpt lat="45.57386" lon="5.03753">
        <ele>318.779</ele>
        <time>2020-11-18T16:12:31Z</time>
      </trkpt>
      <trkpt lat="45.57373" lon="5.03758">
        <ele>319.146</ele>
        <time>2020-11-18T16:12:36Z</time>
      </trkpt>
      <trkpt lat="45.57353" lon="5.03766">
        <ele>319.065</ele>
        <time>2020-11-18T16:12:42Z</time>
      </trkpt>
      <trkpt lat="45.57339" lon="5.03775">
        <ele>319.861</ele>
        <time>2020-11-18T16:12:47Z</time>
      </trkpt>
      <trkpt lat="45.5732" lon="5.03786">
        <ele>320.447</ele>
        <time>2020-11-18T16:12:53Z</time>
      </trkpt>
      <trkpt lat="45.57305" lon="5.03796">
        <ele>320.853</ele>
        <time>2020-11-18T16:12:58Z</time>
      </trkpt>
      <trkpt lat="45.57288" lon="5.03808">
        <ele>320.741</ele>
        <time>2020-11-18T16:13:04Z</time>
      </trkpt>
      <trkpt lat="45.5727" lon="5.03819">
        <ele>320.923</ele>
        <time>2020-11-18T16:13:10Z</time>
      </trkpt>
      <trkpt lat="45.57252" lon="5.03829">
        <ele>321.393</ele>
        <time>2020-11-18T16:13:16Z</time>
      </trkpt>
      <trkpt lat="45.57233" lon="5.0384">
        <ele>321.457</ele>
        <time>2020-11-18T16:13:22Z</time>
      </trkpt>
      <trkpt lat="45.57216" lon="5.03851">
        <ele>321.139</ele>
        <time>2020-11-18T16:13:28Z</time>
      </trkpt>
      <trkpt lat="45.57202" lon="5.03861">
        <ele>320.827</ele>
        <time>2020-11-18T16:13:34Z</time>
      </trkpt>
      <trkpt lat="45.57184" lon="5.03873">
        <ele>321.514</ele>
        <time>2020-11-18T16:13:40Z</time>
      </trkpt>
      <trkpt lat="45.57164" lon="5.03889">
        <ele>322.361</ele>
        <time>2020-11-18T16:13:46Z</time>
      </trkpt>
      <trkpt lat="45.5715" lon="5.03906">
        <ele>321.929</ele>
        <time>2020-11-18T16:13:52Z</time>
      </trkpt>
      <trkpt lat="45.5714" lon="5.03924">
        <ele>321.485</ele>
        <time>2020-11-18T16:13:57Z</time>
      </trkpt>
      <trkpt lat="45.57135" lon="5.03952">
        <ele>321.369</ele>
        <time>2020-11-18T16:14:04Z</time>
      </trkpt>
      <trkpt lat="45.57129" lon="5.03981">
        <ele>320.604</ele>
        <time>2020-11-18T16:14:09Z</time>
      </trkpt>
      <trkpt lat="45.57125" lon="5.04009">
        <ele>320.093</ele>
        <time>2020-11-18T16:14:15Z</time>
      </trkpt>
      <trkpt lat="45.57122" lon="5.04029">
        <ele>320.436</ele>
        <time>2020-11-18T16:14:20Z</time>
      </trkpt>
      <trkpt lat="45.57115" lon="5.04059">
        <ele>321.733</ele>
        <time>2020-11-18T16:14:27Z</time>
      </trkpt>
      <trkpt lat="45.5711" lon="5.04081">
        <ele>321.763</ele>
        <time>2020-11-18T16:14:33Z</time>
      </trkpt>
      <trkpt lat="45.57104" lon="5.04108">
        <ele>321.899</ele>
        <time>2020-11-18T16:14:38Z</time>
      </trkpt>
      <trkpt lat="45.57098" lon="5.0413">
        <ele>322.551</ele>
        <time>2020-11-18T16:14:43Z</time>
      </trkpt>
      <trkpt lat="45.57093" lon="5.04154">
        <ele>323.118</ele>
        <time>2020-11-18T16:14:49Z</time>
      </trkpt>
      <trkpt lat="45.57086" lon="5.0418">
        <ele>323.103</ele>
        <time>2020-11-18T16:14:54Z</time>
      </trkpt>
      <trkpt lat="45.57081" lon="5.04207">
        <ele>322.007</ele>
        <time>2020-11-18T16:15:00Z</time>
      </trkpt>
      <trkpt lat="45.57074" lon="5.04234">
        <ele>322.597</ele>
        <time>2020-11-18T16:15:06Z</time>
      </trkpt>
      <trkpt lat="45.57069" lon="5.04259">
        <ele>324.395</ele>
        <time>2020-11-18T16:15:13Z</time>
      </trkpt>
      <trkpt lat="45.57062" lon="5.04286">
        <ele>325.212</ele>
        <time>2020-11-18T16:15:18Z</time>
      </trkpt>
      <trkpt lat="45.57056" lon="5.04311">
        <ele>327.04</ele>
        <time>2020-11-18T16:15:24Z</time>
      </trkpt>
      <trkpt lat="45.57049" lon="5.04337">
        <ele>328.888</ele>
        <time>2020-11-18T16:15:30Z</time>
      </trkpt>
      <trkpt lat="45.57042" lon="5.04364">
        <ele>329.611</ele>
        <time>2020-11-18T16:15:36Z</time>
      </trkpt>
      <trkpt lat="45.57034" lon="5.04391">
        <ele>329.505</ele>
        <time>2020-11-18T16:15:42Z</time>
      </trkpt>
      <trkpt lat="45.57027" lon="5.04414">
        <ele>330.4</ele>
        <time>2020-11-18T16:15:47Z</time>
      </trkpt>
      <trkpt lat="45.57021" lon="5.04435">
        <ele>331.497</ele>
        <time>2020-11-18T16:15:52Z</time>
      </trkpt>
      <trkpt lat="45.57011" lon="5.04449">
        <ele>332.563</ele>
        <time>2020-11-18T16:15:58Z</time>
      </trkpt>
      <trkpt lat="45.56992" lon="5.04447">
        <ele>334.267</ele>
        <time>2020-11-18T16:16:03Z</time>
      </trkpt>
      <trkpt lat="45.56974" lon="5.04447">
        <ele>335.532</ele>
        <time>2020-11-18T16:16:09Z</time>
      </trkpt>
      <trkpt lat="45.56958" lon="5.04448">
        <ele>335.488</ele>
        <time>2020-11-18T16:16:14Z</time>
      </trkpt>
      <trkpt lat="45.5694" lon="5.04449">
        <ele>336.304</ele>
        <time>2020-11-18T16:16:20Z</time>
      </trkpt>
      <trkpt lat="45.56927" lon="5.04462">
        <ele>337.317</ele>
        <time>2020-11-18T16:16:26Z</time>
      </trkpt>
      <trkpt lat="45.56915" lon="5.04473">
        <ele>337.379</ele>
        <time>2020-11-18T16:16:31Z</time>
      </trkpt>
      <trkpt lat="45.56902" lon="5.04478">
        <ele>337.376</ele>
        <time>2020-11-18T16:16:36Z</time>
      </trkpt>
      <trkpt lat="45.56884" lon="5.04484">
        <ele>337.216</ele>
        <time>2020-11-18T16:16:42Z</time>
      </trkpt>
      <trkpt lat="45.56868" lon="5.04489">
        <ele>336.787</ele>
        <time>2020-11-18T16:16:47Z</time>
      </trkpt>
      <trkpt lat="45.56854" lon="5.04492">
        <ele>336.449</ele>
        <time>2020-11-18T16:16:53Z</time>
      </trkpt>
      <trkpt lat="45.56835" lon="5.04497">
        <ele>337.117</ele>
        <time>2020-11-18T16:16:59Z</time>
      </trkpt>
      <trkpt lat="45.56823" lon="5.04504">
        <ele>338.792</ele>
        <time>2020-11-18T16:17:05Z</time>
      </trkpt>
      <trkpt lat="45.56808" lon="5.04509">
        <ele>338.946</ele>
        <time>2020-11-18T16:17:10Z</time>
      </trkpt>
      <trkpt lat="45.56796" lon="5.04516">
        <ele>339.301</ele>
        <time>2020-11-18T16:17:15Z</time>
      </trkpt>
      <trkpt lat="45.56784" lon="5.0452">
        <ele>340.139</ele>
        <time>2020-11-18T16:17:21Z</time>
      </trkpt>
      <trkpt lat="45.5677" lon="5.04524">
        <ele>341.02</ele>
        <time>2020-11-18T16:17:26Z</time>
      </trkpt>
      <trkpt lat="45.56757" lon="5.04524">
        <ele>342.034</ele>
        <time>2020-11-18T16:17:32Z</time>
      </trkpt>
      <trkpt lat="45.56748" lon="5.04513">
        <ele>344.579</ele>
        <time>2020-11-18T16:17:38Z</time>
      </trkpt>
      <trkpt lat="45.56747" lon="5.04493">
        <ele>345.286</ele>
        <time>2020-11-18T16:17:44Z</time>
      </trkpt>
      <trkpt lat="45.56747" lon="5.04472">
        <ele>345.288</ele>
        <time>2020-11-18T16:17:49Z</time>
      </trkpt>
      <trkpt lat="45.56752" lon="5.04443">
        <ele>345.233</ele>
        <time>2020-11-18T16:17:55Z</time>
      </trkpt>
      <trkpt lat="45.56759" lon="5.04418">
        <ele>345.569</ele>
        <time>2020-11-18T16:18:00Z</time>
      </trkpt>
      <trkpt lat="45.56765" lon="5.04385">
        <ele>345.312</ele>
        <time>2020-11-18T16:18:06Z</time>
      </trkpt>
      <trkpt lat="45.56774" lon="5.04352">
        <ele>344.839</ele>
        <time>2020-11-18T16:18:11Z</time>
      </trkpt>
      <trkpt lat="45.56784" lon="5.04316">
        <ele>342.724</ele>
        <time>2020-11-18T16:18:17Z</time>
      </trkpt>
      <trkpt lat="45.56791" lon="5.0427">
        <ele>340.459</ele>
        <time>2020-11-18T16:18:23Z</time>
      </trkpt>
      <trkpt lat="45.56804" lon="5.04206">
        <ele>337.65</ele>
        <time>2020-11-18T16:18:30Z</time>
      </trkpt>
      <trkpt lat="45.56817" lon="5.04137">
        <ele>334.965</ele>
        <time>2020-11-18T16:18:37Z</time>
      </trkpt>
      <trkpt lat="45.56845" lon="5.04063">
        <ele>333.942</ele>
        <time>2020-11-18T16:18:45Z</time>
      </trkpt>
      <trkpt lat="45.56856" lon="5.04001">
        <ele>332.58</ele>
        <time>2020-11-18T16:18:52Z</time>
      </trkpt>
      <trkpt lat="45.56864" lon="5.03955">
        <ele>330.277</ele>
        <time>2020-11-18T16:18:58Z</time>
      </trkpt>
      <trkpt lat="45.56873" lon="5.03916">
        <ele>327.898</ele>
        <time>2020-11-18T16:19:04Z</time>
      </trkpt>
      <trkpt lat="45.56887" lon="5.03875">
        <ele>329.068</ele>
        <time>2020-11-18T16:19:11Z</time>
      </trkpt>
      <trkpt lat="45.56898" lon="5.0383">
        <ele>328.729</ele>
        <time>2020-11-18T16:19:16Z</time>
      </trkpt>
      <trkpt lat="45.56905" lon="5.0379">
        <ele>326.826</ele>
        <time>2020-11-18T16:19:21Z</time>
      </trkpt>
      <trkpt lat="45.56915" lon="5.0374">
        <ele>324.216</ele>
        <time>2020-11-18T16:19:27Z</time>
      </trkpt>
      <trkpt lat="45.56926" lon="5.03689">
        <ele>320.621</ele>
        <time>2020-11-18T16:19:33Z</time>
      </trkpt>
      <trkpt lat="45.56942" lon="5.03639">
        <ele>317.969</ele>
        <time>2020-11-18T16:19:39Z</time>
      </trkpt>
      <trkpt lat="45.56953" lon="5.03589">
        <ele>316.757</ele>
        <time>2020-11-18T16:19:45Z</time>
      </trkpt>
      <trkpt lat="45.56954" lon="5.03542">
        <ele>317.243</ele>
        <time>2020-11-18T16:19:50Z</time>
      </trkpt>
      <trkpt lat="45.56942" lon="5.03495">
        <ele>317.191</ele>
        <time>2020-11-18T16:19:57Z</time>
      </trkpt>
      <trkpt lat="45.56929" lon="5.03455">
        <ele>317.092</ele>
        <time>2020-11-18T16:20:02Z</time>
      </trkpt>
      <trkpt lat="45.5692" lon="5.03419">
        <ele>318.462</ele>
        <time>2020-11-18T16:20:07Z</time>
      </trkpt>
      <trkpt lat="45.56912" lon="5.03378">
        <ele>319.511</ele>
        <time>2020-11-18T16:20:13Z</time>
      </trkpt>
      <trkpt lat="45.56906" lon="5.03336">
        <ele>321.336</ele>
        <time>2020-11-18T16:20:19Z</time>
      </trkpt>
      <trkpt lat="45.56899" lon="5.03277">
        <ele>323.202</ele>
        <time>2020-11-18T16:20:26Z</time>
      </trkpt>
      <trkpt lat="45.56887" lon="5.03225">
        <ele>324.026</ele>
        <time>2020-11-18T16:20:32Z</time>
      </trkpt>
      <trkpt lat="45.56878" lon="5.03172">
        <ele>323.495</ele>
        <time>2020-11-18T16:20:38Z</time>
      </trkpt>
      <trkpt lat="45.56868" lon="5.03125">
        <ele>322.463</ele>
        <time>2020-11-18T16:20:44Z</time>
      </trkpt>
      <trkpt lat="45.56858" lon="5.03086">
        <ele>321.765</ele>
        <time>2020-11-18T16:20:50Z</time>
      </trkpt>
      <trkpt lat="45.56852" lon="5.03047">
        <ele>321.034</ele>
        <time>2020-11-18T16:20:55Z</time>
      </trkpt>
      <trkpt lat="45.56839" lon="5.0299">
        <ele>320.509</ele>
        <time>2020-11-18T16:21:02Z</time>
      </trkpt>
      <trkpt lat="45.56828" lon="5.0295">
        <ele>321.041</ele>
        <time>2020-11-18T16:21:07Z</time>
      </trkpt>
      <trkpt lat="45.56815" lon="5.02906">
        <ele>320.985</ele>
        <time>2020-11-18T16:21:13Z</time>
      </trkpt>
      <trkpt lat="45.568" lon="5.02868">
        <ele>320.577</ele>
        <time>2020-11-18T16:21:19Z</time>
      </trkpt>
      <trkpt lat="45.56787" lon="5.02838">
        <ele>320.396</ele>
        <time>2020-11-18T16:21:24Z</time>
      </trkpt>
      <trkpt lat="45.56775" lon="5.02798">
        <ele>320.643</ele>
        <time>2020-11-18T16:21:30Z</time>
      </trkpt>
      <trkpt lat="45.56761" lon="5.02755">
        <ele>319.875</ele>
        <time>2020-11-18T16:21:36Z</time>
      </trkpt>
      <trkpt lat="45.56751" lon="5.02719">
        <ele>319.324</ele>
        <time>2020-11-18T16:21:41Z</time>
      </trkpt>
      <trkpt lat="45.56742" lon="5.02683">
        <ele>318.747</ele>
        <time>2020-11-18T16:21:46Z</time>
      </trkpt>
      <trkpt lat="45.56734" lon="5.02646">
        <ele>318.576</ele>
        <time>2020-11-18T16:21:51Z</time>
      </trkpt>
      <trkpt lat="45.56725" lon="5.02603">
        <ele>317.664</ele>
        <time>2020-11-18T16:21:57Z</time>
      </trkpt>
      <trkpt lat="45.56716" lon="5.02561">
        <ele>317.352</ele>
        <time>2020-11-18T16:22:03Z</time>
      </trkpt>
      <trkpt lat="45.56706" lon="5.02525">
        <ele>316.828</ele>
        <time>2020-11-18T16:22:08Z</time>
      </trkpt>
      <trkpt lat="45.56686" lon="5.02495">
        <ele>316.344</ele>
        <time>2020-11-18T16:22:14Z</time>
      </trkpt>
      <trkpt lat="45.56668" lon="5.02471">
        <ele>315.439</ele>
        <time>2020-11-18T16:22:19Z</time>
      </trkpt>
      <trkpt lat="45.56649" lon="5.02438">
        <ele>314.147</ele>
        <time>2020-11-18T16:22:25Z</time>
      </trkpt>
      <trkpt lat="45.56629" lon="5.02405">
        <ele>313.557</ele>
        <time>2020-11-18T16:22:31Z</time>
      </trkpt>
      <trkpt lat="45.5661" lon="5.02374">
        <ele>314.158</ele>
        <time>2020-11-18T16:22:37Z</time>
      </trkpt>
      <trkpt lat="45.5659" lon="5.02337">
        <ele>313.27</ele>
        <time>2020-11-18T16:22:44Z</time>
      </trkpt>
      <trkpt lat="45.56574" lon="5.02304">
        <ele>312.389</ele>
        <time>2020-11-18T16:22:50Z</time>
      </trkpt>
      <trkpt lat="45.56559" lon="5.02275">
        <ele>311.661</ele>
        <time>2020-11-18T16:22:55Z</time>
      </trkpt>
      <trkpt lat="45.56543" lon="5.02243">
        <ele>310.671</ele>
        <time>2020-11-18T16:23:00Z</time>
      </trkpt>
      <trkpt lat="45.56517" lon="5.02205">
        <ele>310.29</ele>
        <time>2020-11-18T16:23:07Z</time>
      </trkpt>
      <trkpt lat="45.56489" lon="5.02173">
        <ele>309.778</ele>
        <time>2020-11-18T16:23:14Z</time>
      </trkpt>
      <trkpt lat="45.56467" lon="5.02146">
        <ele>308.641</ele>
        <time>2020-11-18T16:23:20Z</time>
      </trkpt>
      <trkpt lat="45.56448" lon="5.02122">
        <ele>307.918</ele>
        <time>2020-11-18T16:23:26Z</time>
      </trkpt>
      <trkpt lat="45.56437" lon="5.02109">
        <ele>308.116</ele>
        <time>2020-11-18T16:23:32Z</time>
      </trkpt>
      <trkpt lat="45.5643" lon="5.02102">
        <ele>308.939</ele>
        <time>2020-11-18T16:23:54Z</time>
      </trkpt>
      <trkpt lat="45.56413" lon="5.02089">
        <ele>309.418</ele>
        <time>2020-11-18T16:23:59Z</time>
      </trkpt>
      <trkpt lat="45.56394" lon="5.02084">
        <ele>309.256</ele>
        <time>2020-11-18T16:24:04Z</time>
      </trkpt>
      <trkpt lat="45.56376" lon="5.0208">
        <ele>309.266</ele>
        <time>2020-11-18T16:24:09Z</time>
      </trkpt>
      <trkpt lat="45.56356" lon="5.02072">
        <ele>309.008</ele>
        <time>2020-11-18T16:24:15Z</time>
      </trkpt>
      <trkpt lat="45.5634" lon="5.02037">
        <ele>308.692</ele>
        <time>2020-11-18T16:24:21Z</time>
      </trkpt>
      <trkpt lat="45.56311" lon="5.02">
        <ele>307.467</ele>
        <time>2020-11-18T16:24:27Z</time>
      </trkpt>
      <trkpt lat="45.56284" lon="5.01975">
        <ele>306.092</ele>
        <time>2020-11-18T16:24:33Z</time>
      </trkpt>
      <trkpt lat="45.5626" lon="5.01951">
        <ele>303.697</ele>
        <time>2020-11-18T16:24:39Z</time>
      </trkpt>
      <trkpt lat="45.56242" lon="5.01935">
        <ele>300.709</ele>
        <time>2020-11-18T16:24:44Z</time>
      </trkpt>
      <trkpt lat="45.56223" lon="5.01927">
        <ele>300.79</ele>
        <time>2020-11-18T16:24:49Z</time>
      </trkpt>
      <trkpt lat="45.56214" lon="5.01906">
        <ele>300.886</ele>
        <time>2020-11-18T16:24:55Z</time>
      </trkpt>
      <trkpt lat="45.56201" lon="5.01872">
        <ele>302.355</ele>
        <time>2020-11-18T16:25:00Z</time>
      </trkpt>
      <trkpt lat="45.56188" lon="5.01842">
        <ele>303.659</ele>
        <time>2020-11-18T16:25:06Z</time>
      </trkpt>
      <trkpt lat="45.56179" lon="5.01817">
        <ele>303.713</ele>
        <time>2020-11-18T16:25:11Z</time>
      </trkpt>
      <trkpt lat="45.56168" lon="5.01789">
        <ele>303.733</ele>
        <time>2020-11-18T16:25:17Z</time>
      </trkpt>
      <trkpt lat="45.56153" lon="5.01785">
        <ele>302.173</ele>
        <time>2020-11-18T16:25:22Z</time>
      </trkpt>
      <trkpt lat="45.56136" lon="5.01787">
        <ele>301.209</ele>
        <time>2020-11-18T16:25:27Z</time>
      </trkpt>
      <trkpt lat="45.56121" lon="5.0179">
        <ele>300.621</ele>
        <time>2020-11-18T16:25:32Z</time>
      </trkpt>
      <trkpt lat="45.56106" lon="5.01792">
        <ele>299.83</ele>
        <time>2020-11-18T16:25:37Z</time>
      </trkpt>
      <trkpt lat="45.56086" lon="5.01796">
        <ele>298.797</ele>
        <time>2020-11-18T16:25:43Z</time>
      </trkpt>
      <trkpt lat="45.56068" lon="5.01798">
        <ele>298.419</ele>
        <time>2020-11-18T16:25:48Z</time>
      </trkpt>
      <trkpt lat="45.56059" lon="5.01771">
        <ele>298.727</ele>
        <time>2020-11-18T16:25:54Z</time>
      </trkpt>
      <trkpt lat="45.5606" lon="5.01742">
        <ele>298.761</ele>
        <time>2020-11-18T16:25:59Z</time>
      </trkpt>
      <trkpt lat="45.56058" lon="5.01707">
        <ele>299.167</ele>
        <time>2020-11-18T16:26:05Z</time>
      </trkpt>
      <trkpt lat="45.56056" lon="5.01669">
        <ele>300.129</ele>
        <time>2020-11-18T16:26:11Z</time>
      </trkpt>
      <trkpt lat="45.56054" lon="5.01629">
        <ele>300.445</ele>
        <time>2020-11-18T16:26:17Z</time>
      </trkpt>
      <trkpt lat="45.56052" lon="5.01587">
        <ele>300.934</ele>
        <time>2020-11-18T16:26:23Z</time>
      </trkpt>
      <trkpt lat="45.56051" lon="5.01553">
        <ele>301.658</ele>
        <time>2020-11-18T16:26:28Z</time>
      </trkpt>
      <trkpt lat="45.56051" lon="5.0151">
        <ele>301.407</ele>
        <time>2020-11-18T16:26:34Z</time>
      </trkpt>
      <trkpt lat="45.5605" lon="5.01469">
        <ele>301.101</ele>
        <time>2020-11-18T16:26:40Z</time>
      </trkpt>
      <trkpt lat="45.56052" lon="5.01429">
        <ele>301.212</ele>
        <time>2020-11-18T16:26:46Z</time>
      </trkpt>
      <trkpt lat="45.56056" lon="5.01388">
        <ele>301.323</ele>
        <time>2020-11-18T16:26:52Z</time>
      </trkpt>
      <trkpt lat="45.56056" lon="5.01353">
        <ele>301.024</ele>
        <time>2020-11-18T16:26:57Z</time>
      </trkpt>
      <trkpt lat="45.56056" lon="5.01318">
        <ele>298.977</ele>
        <time>2020-11-18T16:27:03Z</time>
      </trkpt>
      <trkpt lat="45.56057" lon="5.01278">
        <ele>296.146</ele>
        <time>2020-11-18T16:27:08Z</time>
      </trkpt>
      <trkpt lat="45.5606" lon="5.01246">
        <ele>294.055</ele>
        <time>2020-11-18T16:27:13Z</time>
      </trkpt>
      <trkpt lat="45.56063" lon="5.01217">
        <ele>291.827</ele>
        <time>2020-11-18T16:27:18Z</time>
      </trkpt>
      <trkpt lat="45.56062" lon="5.01199">
        <ele>290.047</ele>
        <time>2020-11-18T16:27:25Z</time>
      </trkpt>
      <trkpt lat="45.56061" lon="5.01208">
        <ele>289.071</ele>
        <time>2020-11-18T16:27:52Z</time>
      </trkpt>
      <trkpt lat="45.56059" lon="5.01232">
        <ele>289.893</ele>
        <time>2020-11-18T16:27:59Z</time>
      </trkpt>
      <trkpt lat="45.56056" lon="5.01266">
        <ele>288.868</ele>
        <time>2020-11-18T16:28:04Z</time>
      </trkpt>
      <trkpt lat="45.56055" lon="5.01307">
        <ele>287.81</ele>
        <time>2020-11-18T16:28:11Z</time>
      </trkpt>
      <trkpt lat="45.56057" lon="5.01342">
        <ele>286.896</ele>
        <time>2020-11-18T16:28:17Z</time>
      </trkpt>
      <trkpt lat="45.56058" lon="5.01377">
        <ele>286.491</ele>
        <time>2020-11-18T16:28:23Z</time>
      </trkpt>
      <trkpt lat="45.56057" lon="5.01412">
        <ele>286.154</ele>
        <time>2020-11-18T16:28:29Z</time>
      </trkpt>
      <trkpt lat="45.56054" lon="5.01441">
        <ele>286.32</ele>
        <time>2020-11-18T16:28:34Z</time>
      </trkpt>
      <trkpt lat="45.56052" lon="5.01476">
        <ele>287.052</ele>
        <time>2020-11-18T16:28:40Z</time>
      </trkpt>
      <trkpt lat="45.56053" lon="5.0151">
        <ele>287.285</ele>
        <time>2020-11-18T16:28:46Z</time>
      </trkpt>
      <trkpt lat="45.56054" lon="5.01544">
        <ele>288.194</ele>
        <time>2020-11-18T16:28:52Z</time>
      </trkpt>
      <trkpt lat="45.56056" lon="5.01579">
        <ele>289.198</ele>
        <time>2020-11-18T16:28:58Z</time>
      </trkpt>
      <trkpt lat="45.56057" lon="5.0161">
        <ele>290.131</ele>
        <time>2020-11-18T16:29:04Z</time>
      </trkpt>
      <trkpt lat="45.56058" lon="5.01643">
        <ele>290.844</ele>
        <time>2020-11-18T16:29:10Z</time>
      </trkpt>
      <trkpt lat="45.56059" lon="5.0167">
        <ele>291.762</ele>
        <time>2020-11-18T16:29:15Z</time>
      </trkpt>
      <trkpt lat="45.5606" lon="5.01704">
        <ele>292.057</ele>
        <time>2020-11-18T16:29:21Z</time>
      </trkpt>
      <trkpt lat="45.56061" lon="5.01742">
        <ele>292.14</ele>
        <time>2020-11-18T16:29:28Z</time>
      </trkpt>
      <trkpt lat="45.56064" lon="5.01775">
        <ele>291.536</ele>
        <time>2020-11-18T16:29:34Z</time>
      </trkpt>
      <trkpt lat="45.56058" lon="5.01803">
        <ele>292.013</ele>
        <time>2020-11-18T16:29:40Z</time>
      </trkpt>
      <trkpt lat="45.56051" lon="5.01828">
        <ele>292.918</ele>
        <time>2020-11-18T16:29:46Z</time>
      </trkpt>
      <trkpt lat="45.56041" lon="5.0185">
        <ele>293.955</ele>
        <time>2020-11-18T16:29:52Z</time>
      </trkpt>
      <trkpt lat="45.56024" lon="5.01852">
        <ele>293.693</ele>
        <time>2020-11-18T16:29:58Z</time>
      </trkpt>
      <trkpt lat="45.56017" lon="5.01826">
        <ele>294.902</ele>
        <time>2020-11-18T16:30:04Z</time>
      </trkpt>
      <trkpt lat="45.5601" lon="5.01797">
        <ele>296.983</ele>
        <time>2020-11-18T16:30:10Z</time>
      </trkpt>
      <trkpt lat="45.56001" lon="5.01766">
        <ele>298.784</ele>
        <time>2020-11-18T16:30:16Z</time>
      </trkpt>
      <trkpt lat="45.55987" lon="5.01733">
        <ele>299.777</ele>
        <time>2020-11-18T16:30:22Z</time>
      </trkpt>
      <trkpt lat="45.55972" lon="5.017">
        <ele>300.688</ele>
        <time>2020-11-18T16:30:28Z</time>
      </trkpt>
      <trkpt lat="45.55957" lon="5.01675">
        <ele>300.52</ele>
        <time>2020-11-18T16:30:34Z</time>
      </trkpt>
      <trkpt lat="45.55936" lon="5.0165">
        <ele>300.379</ele>
        <time>2020-11-18T16:30:39Z</time>
      </trkpt>
      <trkpt lat="45.55914" lon="5.0163">
        <ele>299.453</ele>
        <time>2020-11-18T16:30:45Z</time>
      </trkpt>
      <trkpt lat="45.55895" lon="5.0162">
        <ele>297.36</ele>
        <time>2020-11-18T16:30:50Z</time>
      </trkpt>
      <trkpt lat="45.55877" lon="5.01619">
        <ele>295.65</ele>
        <time>2020-11-18T16:30:56Z</time>
      </trkpt>
      <trkpt lat="45.55852" lon="5.01622">
        <ele>295.265</ele>
        <time>2020-11-18T16:31:01Z</time>
      </trkpt>
      <trkpt lat="45.55829" lon="5.01625">
        <ele>295.149</ele>
        <time>2020-11-18T16:31:07Z</time>
      </trkpt>
      <trkpt lat="45.5581" lon="5.0163">
        <ele>294.58</ele>
        <time>2020-11-18T16:31:13Z</time>
      </trkpt>
      <trkpt lat="45.55794" lon="5.01633">
        <ele>294.345</ele>
        <time>2020-11-18T16:31:18Z</time>
      </trkpt>
      <trkpt lat="45.55775" lon="5.01638">
        <ele>293.856</ele>
        <time>2020-11-18T16:31:24Z</time>
      </trkpt>
      <trkpt lat="45.55753" lon="5.01642">
        <ele>294.01</ele>
        <time>2020-11-18T16:31:31Z</time>
      </trkpt>
      <trkpt lat="45.55737" lon="5.01645">
        <ele>294.302</ele>
        <time>2020-11-18T16:31:36Z</time>
      </trkpt>
      <trkpt lat="45.55722" lon="5.01643">
        <ele>294.187</ele>
        <time>2020-11-18T16:31:41Z</time>
      </trkpt>
      <trkpt lat="45.55707" lon="5.01627">
        <ele>295.153</ele>
        <time>2020-11-18T16:31:47Z</time>
      </trkpt>
      <trkpt lat="45.55696" lon="5.01603">
        <ele>295.519</ele>
        <time>2020-11-18T16:31:53Z</time>
      </trkpt>
      <trkpt lat="45.55688" lon="5.01582">
        <ele>295.062</ele>
        <time>2020-11-18T16:31:59Z</time>
      </trkpt>
      <trkpt lat="45.55677" lon="5.01558">
        <ele>294.68</ele>
        <time>2020-11-18T16:32:04Z</time>
      </trkpt>
      <trkpt lat="45.55666" lon="5.01534">
        <ele>295.019</ele>
        <time>2020-11-18T16:32:10Z</time>
      </trkpt>
      <trkpt lat="45.55657" lon="5.01514">
        <ele>295.31</ele>
        <time>2020-11-18T16:32:15Z</time>
      </trkpt>
      <trkpt lat="45.55646" lon="5.0149">
        <ele>296.303</ele>
        <time>2020-11-18T16:32:21Z</time>
      </trkpt>
      <trkpt lat="45.55637" lon="5.0147">
        <ele>296.789</ele>
        <time>2020-11-18T16:32:26Z</time>
      </trkpt>
      <trkpt lat="45.55629" lon="5.01446">
        <ele>297.25</ele>
        <time>2020-11-18T16:32:31Z</time>
      </trkpt>
      <trkpt lat="45.55618" lon="5.01423">
        <ele>297.598</ele>
        <time>2020-11-18T16:32:36Z</time>
      </trkpt>
      <trkpt lat="45.55608" lon="5.01398">
        <ele>298.18</ele>
        <time>2020-11-18T16:32:41Z</time>
      </trkpt>
      <trkpt lat="45.55598" lon="5.01373">
        <ele>298.746</ele>
        <time>2020-11-18T16:32:46Z</time>
      </trkpt>
      <trkpt lat="45.55588" lon="5.01348">
        <ele>299.122</ele>
        <time>2020-11-18T16:32:51Z</time>
      </trkpt>
      <trkpt lat="45.55575" lon="5.01317">
        <ele>299.583</ele>
        <time>2020-11-18T16:32:57Z</time>
      </trkpt>
      <trkpt lat="45.55564" lon="5.01289">
        <ele>299.679</ele>
        <time>2020-11-18T16:33:02Z</time>
      </trkpt>
      <trkpt lat="45.55548" lon="5.01258">
        <ele>298.696</ele>
        <time>2020-11-18T16:33:08Z</time>
      </trkpt>
      <trkpt lat="45.55537" lon="5.0123">
        <ele>298.434</ele>
        <time>2020-11-18T16:33:13Z</time>
      </trkpt>
      <trkpt lat="45.55525" lon="5.01199">
        <ele>298.004</ele>
        <time>2020-11-18T16:33:18Z</time>
      </trkpt>
      <trkpt lat="45.55511" lon="5.01167">
        <ele>297.242</ele>
        <time>2020-11-18T16:33:23Z</time>
      </trkpt>
      <trkpt lat="45.55495" lon="5.0113">
        <ele>296.992</ele>
        <time>2020-11-18T16:33:29Z</time>
      </trkpt>
      <trkpt lat="45.55483" lon="5.01099">
        <ele>296.582</ele>
        <time>2020-11-18T16:33:34Z</time>
      </trkpt>
      <trkpt lat="45.55473" lon="5.01064">
        <ele>295.971</ele>
        <time>2020-11-18T16:33:40Z</time>
      </trkpt>
      <trkpt lat="45.55465" lon="5.01031">
        <ele>296.39</ele>
        <time>2020-11-18T16:33:47Z</time>
      </trkpt>
      <trkpt lat="45.55457" lon="5.00995">
        <ele>296.917</ele>
        <time>2020-11-18T16:33:52Z</time>
      </trkpt>
      <trkpt lat="45.55451" lon="5.00963">
        <ele>297.589</ele>
        <time>2020-11-18T16:33:57Z</time>
      </trkpt>
      <trkpt lat="45.55442" lon="5.00932">
        <ele>297.266</ele>
        <time>2020-11-18T16:34:03Z</time>
      </trkpt>
      <trkpt lat="45.55431" lon="5.00922">
        <ele>297.025</ele>
        <time>2020-11-18T16:34:08Z</time>
      </trkpt>
      <trkpt lat="45.55419" lon="5.00931">
        <ele>297.109</ele>
        <time>2020-11-18T16:34:14Z</time>
      </trkpt>
      <trkpt lat="45.55408" lon="5.00937">
        <ele>297.15</ele>
        <time>2020-11-18T16:34:20Z</time>
      </trkpt>
      <trkpt lat="45.55398" lon="5.00941">
        <ele>297.392</ele>
        <time>2020-11-18T16:34:25Z</time>
      </trkpt>
      <trkpt lat="45.55386" lon="5.00948">
        <ele>297.944</ele>
        <time>2020-11-18T16:34:31Z</time>
      </trkpt>
      <trkpt lat="45.55376" lon="5.00954">
        <ele>298.765</ele>
        <time>2020-11-18T16:34:37Z</time>
      </trkpt>
      <trkpt lat="45.55368" lon="5.0096">
        <ele>299.35</ele>
        <time>2020-11-18T16:34:42Z</time>
      </trkpt>
      <trkpt lat="45.55356" lon="5.00969">
        <ele>300.353</ele>
        <time>2020-11-18T16:34:49Z</time>
      </trkpt>
      <trkpt lat="45.55346" lon="5.00977">
        <ele>301.789</ele>
        <time>2020-11-18T16:34:55Z</time>
      </trkpt>
      <trkpt lat="45.55335" lon="5.00985">
        <ele>304.326</ele>
        <time>2020-11-18T16:35:02Z</time>
      </trkpt>
      <trkpt lat="45.55326" lon="5.00996">
        <ele>306.123</ele>
        <time>2020-11-18T16:35:07Z</time>
      </trkpt>
      <trkpt lat="45.55318" lon="5.01018">
        <ele>307.97</ele>
        <time>2020-11-18T16:35:16Z</time>
      </trkpt>
      <trkpt lat="45.55315" lon="5.01034">
        <ele>308.39</ele>
        <time>2020-11-18T16:35:21Z</time>
      </trkpt>
      <trkpt lat="45.55311" lon="5.01047">
        <ele>308.846</ele>
        <time>2020-11-18T16:35:26Z</time>
      </trkpt>
      <trkpt lat="45.55308" lon="5.01059">
        <ele>309.272</ele>
        <time>2020-11-18T16:35:31Z</time>
      </trkpt>
      <trkpt lat="45.55307" lon="5.01074">
        <ele>309.728</ele>
        <time>2020-11-18T16:35:37Z</time>
      </trkpt>
      <trkpt lat="45.55306" lon="5.01088">
        <ele>310.972</ele>
        <time>2020-11-18T16:35:42Z</time>
      </trkpt>
      <trkpt lat="45.55304" lon="5.01102">
        <ele>310.513</ele>
        <time>2020-11-18T16:35:47Z</time>
      </trkpt>
      <trkpt lat="45.55302" lon="5.01118">
        <ele>310.542</ele>
        <time>2020-11-18T16:35:53Z</time>
      </trkpt>
      <trkpt lat="45.553" lon="5.0113">
        <ele>310.64</ele>
        <time>2020-11-18T16:35:59Z</time>
      </trkpt>
      <trkpt lat="45.55298" lon="5.01142">
        <ele>310.905</ele>
        <time>2020-11-18T16:36:04Z</time>
      </trkpt>
      <trkpt lat="45.55291" lon="5.01149">
        <ele>311.511</ele>
        <time>2020-11-18T16:36:09Z</time>
      </trkpt>
      <trkpt lat="45.5528" lon="5.01149">
        <ele>312.66</ele>
        <time>2020-11-18T16:36:15Z</time>
      </trkpt>
      <trkpt lat="45.5527" lon="5.0114">
        <ele>313.779</ele>
        <time>2020-11-18T16:36:21Z</time>
      </trkpt>
      <trkpt lat="45.55263" lon="5.01133">
        <ele>315.203</ele>
        <time>2020-11-18T16:36:26Z</time>
      </trkpt>
      <trkpt lat="45.55255" lon="5.01121">
        <ele>316.198</ele>
        <time>2020-11-18T16:36:32Z</time>
      </trkpt>
      <trkpt lat="45.55248" lon="5.01109">
        <ele>318.607</ele>
        <time>2020-11-18T16:36:39Z</time>
      </trkpt>
      <trkpt lat="45.55242" lon="5.01092">
        <ele>321.254</ele>
        <time>2020-11-18T16:36:45Z</time>
      </trkpt>
      <trkpt lat="45.55237" lon="5.01077">
        <ele>322.245</ele>
        <time>2020-11-18T16:36:51Z</time>
      </trkpt>
      <trkpt lat="45.55232" lon="5.0106">
        <ele>323.241</ele>
        <time>2020-11-18T16:36:57Z</time>
      </trkpt>
      <trkpt lat="45.55227" lon="5.01042">
        <ele>324.094</ele>
        <time>2020-11-18T16:37:02Z</time>
      </trkpt>
      <trkpt lat="45.5522" lon="5.01019">
        <ele>324.648</ele>
        <time>2020-11-18T16:37:08Z</time>
      </trkpt>
      <trkpt lat="45.55213" lon="5.01001">
        <ele>325.239</ele>
        <time>2020-11-18T16:37:13Z</time>
      </trkpt>
      <trkpt lat="45.55205" lon="5.00984">
        <ele>325.719</ele>
        <time>2020-11-18T16:37:18Z</time>
      </trkpt>
      <trkpt lat="45.55193" lon="5.00973">
        <ele>324.84</ele>
        <time>2020-11-18T16:37:23Z</time>
      </trkpt>
      <trkpt lat="45.55178" lon="5.00967">
        <ele>325.325</ele>
        <time>2020-11-18T16:37:29Z</time>
      </trkpt>
      <trkpt lat="45.55167" lon="5.00965">
        <ele>326.212</ele>
        <time>2020-11-18T16:37:34Z</time>
      </trkpt>
      <trkpt lat="45.55156" lon="5.00964">
        <ele>327.823</ele>
        <time>2020-11-18T16:37:40Z</time>
      </trkpt>
      <trkpt lat="45.55145" lon="5.00964">
        <ele>329.409</ele>
        <time>2020-11-18T16:37:45Z</time>
      </trkpt>
      <trkpt lat="45.55134" lon="5.00967">
        <ele>330.561</ele>
        <time>2020-11-18T16:37:51Z</time>
      </trkpt>
      <trkpt lat="45.55123" lon="5.00973">
        <ele>331.321</ele>
        <time>2020-11-18T16:37:57Z</time>
      </trkpt>
      <trkpt lat="45.55111" lon="5.00981">
        <ele>334.144</ele>
        <time>2020-11-18T16:38:04Z</time>
      </trkpt>
      <trkpt lat="45.55099" lon="5.00992">
        <ele>336.644</ele>
        <time>2020-11-18T16:38:09Z</time>
      </trkpt>
      <trkpt lat="45.55089" lon="5.01001">
        <ele>338.154</ele>
        <time>2020-11-18T16:38:14Z</time>
      </trkpt>
      <trkpt lat="45.55081" lon="5.0101">
        <ele>339.336</ele>
        <time>2020-11-18T16:38:19Z</time>
      </trkpt>
      <trkpt lat="45.5507" lon="5.0102">
        <ele>342.706</ele>
        <time>2020-11-18T16:38:25Z</time>
      </trkpt>
      <trkpt lat="45.5506" lon="5.01029">
        <ele>345.163</ele>
        <time>2020-11-18T16:38:30Z</time>
      </trkpt>
      <trkpt lat="45.55047" lon="5.01038">
        <ele>348.271</ele>
        <time>2020-11-18T16:38:36Z</time>
      </trkpt>
      <trkpt lat="45.55034" lon="5.01046">
        <ele>349.774</ele>
        <time>2020-11-18T16:38:42Z</time>
      </trkpt>
      <trkpt lat="45.55022" lon="5.01053">
        <ele>351.247</ele>
        <time>2020-11-18T16:38:48Z</time>
      </trkpt>
      <trkpt lat="45.55009" lon="5.01061">
        <ele>351.222</ele>
        <time>2020-11-18T16:38:54Z</time>
      </trkpt>
      <trkpt lat="45.54998" lon="5.01067">
        <ele>352.527</ele>
        <time>2020-11-18T16:38:59Z</time>
      </trkpt>
      <trkpt lat="45.54986" lon="5.01074">
        <ele>352.429</ele>
        <time>2020-11-18T16:39:05Z</time>
      </trkpt>
      <trkpt lat="45.54971" lon="5.01078">
        <ele>353.82</ele>
        <time>2020-11-18T16:39:11Z</time>
      </trkpt>
      <trkpt lat="45.54961" lon="5.01088">
        <ele>352.17</ele>
        <time>2020-11-18T16:39:17Z</time>
      </trkpt>
      <trkpt lat="45.54948" lon="5.01101">
        <ele>346.518</ele>
        <time>2020-11-18T16:39:22Z</time>
      </trkpt>
      <trkpt lat="45.54936" lon="5.01115">
        <ele>341.411</ele>
        <time>2020-11-18T16:39:28Z</time>
      </trkpt>
      <trkpt lat="45.54924" lon="5.0113">
        <ele>341.333</ele>
        <time>2020-11-18T16:39:34Z</time>
      </trkpt>
      <trkpt lat="45.54914" lon="5.01143">
        <ele>341.99</ele>
        <time>2020-11-18T16:39:39Z</time>
      </trkpt>
      <trkpt lat="45.54904" lon="5.01159">
        <ele>342.292</ele>
        <time>2020-11-18T16:39:44Z</time>
      </trkpt>
      <trkpt lat="45.54895" lon="5.01172">
        <ele>340.721</ele>
        <time>2020-11-18T16:39:50Z</time>
      </trkpt>
      <trkpt lat="45.5489" lon="5.01174">
        <ele>338.921</ele>
        <time>2020-11-18T16:39:56Z</time>
      </trkpt>
      <trkpt lat="45.54881" lon="5.01183">
        <ele>336.717</ele>
        <time>2020-11-18T16:40:01Z</time>
      </trkpt>
      <trkpt lat="45.54874" lon="5.012">
        <ele>335.302</ele>
        <time>2020-11-18T16:40:06Z</time>
      </trkpt>
      <trkpt lat="45.5487" lon="5.01209">
        <ele>334.968</ele>
        <time>2020-11-18T16:40:12Z</time>
      </trkpt>
      <trkpt lat="45.5486" lon="5.01215">
        <ele>335.058</ele>
        <time>2020-11-18T16:40:18Z</time>
      </trkpt>
      <trkpt lat="45.54855" lon="5.01217">
        <ele>334.527</ele>
        <time>2020-11-18T16:40:24Z</time>
      </trkpt>
      <trkpt lat="45.54843" lon="5.01222">
        <ele>332.803</ele>
        <time>2020-11-18T16:40:32Z</time>
      </trkpt>
      <trkpt lat="45.54828" lon="5.01234">
        <ele>330.184</ele>
        <time>2020-11-18T16:40:37Z</time>
      </trkpt>
      <trkpt lat="45.54817" lon="5.0124">
        <ele>330.284</ele>
        <time>2020-11-18T16:40:43Z</time>
      </trkpt>
      <trkpt lat="45.54803" lon="5.01245">
        <ele>330.075</ele>
        <time>2020-11-18T16:40:49Z</time>
      </trkpt>
      <trkpt lat="45.54793" lon="5.01251">
        <ele>328.652</ele>
        <time>2020-11-18T16:40:54Z</time>
      </trkpt>
      <trkpt lat="45.54782" lon="5.0126">
        <ele>327.111</ele>
        <time>2020-11-18T16:40:59Z</time>
      </trkpt>
      <trkpt lat="45.54777" lon="5.01262">
        <ele>324.035</ele>
        <time>2020-11-18T16:41:12Z</time>
      </trkpt>
      <trkpt lat="45.54764" lon="5.01262">
        <ele>321.973</ele>
        <time>2020-11-18T16:41:17Z</time>
      </trkpt>
      <trkpt lat="45.54749" lon="5.01267">
        <ele>320.252</ele>
        <time>2020-11-18T16:41:22Z</time>
      </trkpt>
      <trkpt lat="45.54726" lon="5.01268">
        <ele>318.783</ele>
        <time>2020-11-18T16:41:28Z</time>
      </trkpt>
      <trkpt lat="45.54715" lon="5.01271">
        <ele>318.794</ele>
        <time>2020-11-18T16:41:33Z</time>
      </trkpt>
      <trkpt lat="45.54695" lon="5.01275">
        <ele>318.422</ele>
        <time>2020-11-18T16:41:39Z</time>
      </trkpt>
      <trkpt lat="45.54676" lon="5.01277">
        <ele>318.166</ele>
        <time>2020-11-18T16:41:44Z</time>
      </trkpt>
      <trkpt lat="45.54662" lon="5.01279">
        <ele>318.701</ele>
        <time>2020-11-18T16:41:49Z</time>
      </trkpt>
      <trkpt lat="45.54644" lon="5.01283">
        <ele>317.934</ele>
        <time>2020-11-18T16:41:55Z</time>
      </trkpt>
      <trkpt lat="45.54632" lon="5.01288">
        <ele>318.762</ele>
        <time>2020-11-18T16:42:00Z</time>
      </trkpt>
      <trkpt lat="45.54619" lon="5.01292">
        <ele>319.004</ele>
        <time>2020-11-18T16:42:06Z</time>
      </trkpt>
      <trkpt lat="45.54606" lon="5.01296">
        <ele>319.583</ele>
        <time>2020-11-18T16:42:12Z</time>
      </trkpt>
      <trkpt lat="45.54591" lon="5.01298">
        <ele>321.43</ele>
        <time>2020-11-18T16:42:18Z</time>
      </trkpt>
      <trkpt lat="45.54579" lon="5.01303">
        <ele>321.598</ele>
        <time>2020-11-18T16:42:23Z</time>
      </trkpt>
      <trkpt lat="45.54562" lon="5.01304">
        <ele>322.67</ele>
        <time>2020-11-18T16:42:29Z</time>
      </trkpt>
      <trkpt lat="45.54541" lon="5.01304">
        <ele>324.44</ele>
        <time>2020-11-18T16:42:35Z</time>
      </trkpt>
      <trkpt lat="45.54522" lon="5.0131">
        <ele>326.246</ele>
        <time>2020-11-18T16:42:41Z</time>
      </trkpt>
      <trkpt lat="45.5451" lon="5.01316">
        <ele>326.383</ele>
        <time>2020-11-18T16:42:46Z</time>
      </trkpt>
      <trkpt lat="45.54493" lon="5.01319">
        <ele>327.631</ele>
        <time>2020-11-18T16:42:51Z</time>
      </trkpt>
      <trkpt lat="45.54474" lon="5.01321">
        <ele>326.371</ele>
        <time>2020-11-18T16:42:57Z</time>
      </trkpt>
      <trkpt lat="45.54458" lon="5.01325">
        <ele>324.748</ele>
        <time>2020-11-18T16:43:03Z</time>
      </trkpt>
      <trkpt lat="45.54444" lon="5.01331">
        <ele>322.171</ele>
        <time>2020-11-18T16:43:08Z</time>
      </trkpt>
      <trkpt lat="45.54432" lon="5.01336">
        <ele>321.455</ele>
        <time>2020-11-18T16:43:13Z</time>
      </trkpt>
      <trkpt lat="45.54419" lon="5.01342">
        <ele>320.399</ele>
        <time>2020-11-18T16:43:19Z</time>
      </trkpt>
      <trkpt lat="45.54407" lon="5.01348">
        <ele>318.411</ele>
        <time>2020-11-18T16:43:24Z</time>
      </trkpt>
      <trkpt lat="45.5439" lon="5.01356">
        <ele>317.87</ele>
        <time>2020-11-18T16:43:30Z</time>
      </trkpt>
      <trkpt lat="45.54369" lon="5.01357">
        <ele>317.405</ele>
        <time>2020-11-18T16:43:36Z</time>
      </trkpt>
      <trkpt lat="45.54357" lon="5.01315">
        <ele>317.519</ele>
        <time>2020-11-18T16:43:42Z</time>
      </trkpt>
      <trkpt lat="45.54349" lon="5.01282">
        <ele>317.026</ele>
        <time>2020-11-18T16:43:48Z</time>
      </trkpt>
      <trkpt lat="45.54345" lon="5.01256">
        <ele>315.814</ele>
        <time>2020-11-18T16:43:53Z</time>
      </trkpt>
      <trkpt lat="45.5434" lon="5.01231">
        <ele>314.755</ele>
        <time>2020-11-18T16:43:59Z</time>
      </trkpt>
      <trkpt lat="45.54335" lon="5.01212">
        <ele>314.899</ele>
        <time>2020-11-18T16:44:04Z</time>
      </trkpt>
      <trkpt lat="45.54331" lon="5.01192">
        <ele>314.011</ele>
        <time>2020-11-18T16:44:09Z</time>
      </trkpt>
      <trkpt lat="45.54337" lon="5.0117">
        <ele>316.307</ele>
        <time>2020-11-18T16:44:15Z</time>
      </trkpt>
      <trkpt lat="45.54351" lon="5.01154">
        <ele>317.661</ele>
        <time>2020-11-18T16:44:21Z</time>
      </trkpt>
      <trkpt lat="45.54364" lon="5.01146">
        <ele>316.846</ele>
        <time>2020-11-18T16:44:26Z</time>
      </trkpt>
      <trkpt lat="45.54386" lon="5.01137">
        <ele>315.782</ele>
        <time>2020-11-18T16:44:33Z</time>
      </trkpt>
      <trkpt lat="45.54411" lon="5.01133">
        <ele>314.002</ele>
        <time>2020-11-18T16:44:38Z</time>
      </trkpt>
      <trkpt lat="45.54431" lon="5.01133">
        <ele>312.772</ele>
        <time>2020-11-18T16:44:43Z</time>
      </trkpt>
      <trkpt lat="45.54458" lon="5.01141">
        <ele>311.44</ele>
        <time>2020-11-18T16:44:48Z</time>
      </trkpt>
      <trkpt lat="45.54497" lon="5.01146">
        <ele>308.615</ele>
        <time>2020-11-18T16:44:54Z</time>
      </trkpt>
      <trkpt lat="45.54539" lon="5.01146">
        <ele>306.783</ele>
        <time>2020-11-18T16:45:00Z</time>
      </trkpt>
      <trkpt lat="45.5457" lon="5.01137">
        <ele>305.633</ele>
        <time>2020-11-18T16:45:06Z</time>
      </trkpt>
      <trkpt lat="45.54603" lon="5.01128">
        <ele>305.303</ele>
        <time>2020-11-18T16:45:11Z</time>
      </trkpt>
      <trkpt lat="45.54633" lon="5.01115">
        <ele>304.209</ele>
        <time>2020-11-18T16:45:16Z</time>
      </trkpt>
      <trkpt lat="45.54674" lon="5.01097">
        <ele>302.886</ele>
        <time>2020-11-18T16:45:23Z</time>
      </trkpt>
      <trkpt lat="45.547" lon="5.01079">
        <ele>302.719</ele>
        <time>2020-11-18T16:45:28Z</time>
      </trkpt>
      <trkpt lat="45.54733" lon="5.01052">
        <ele>303.226</ele>
        <time>2020-11-18T16:45:35Z</time>
      </trkpt>
      <trkpt lat="45.54757" lon="5.01039">
        <ele>303.595</ele>
        <time>2020-11-18T16:45:40Z</time>
      </trkpt>
      <trkpt lat="45.54789" lon="5.01025">
        <ele>302.763</ele>
        <time>2020-11-18T16:45:46Z</time>
      </trkpt>
      <trkpt lat="45.54824" lon="5.01009">
        <ele>301.755</ele>
        <time>2020-11-18T16:45:52Z</time>
      </trkpt>
      <trkpt lat="45.54856" lon="5.00998">
        <ele>300.913</ele>
        <time>2020-11-18T16:45:57Z</time>
      </trkpt>
      <trkpt lat="45.54885" lon="5.00992">
        <ele>299.993</ele>
        <time>2020-11-18T16:46:02Z</time>
      </trkpt>
      <trkpt lat="45.54911" lon="5.00981">
        <ele>299.141</ele>
        <time>2020-11-18T16:46:07Z</time>
      </trkpt>
      <trkpt lat="45.54941" lon="5.00967">
        <ele>298.621</ele>
        <time>2020-11-18T16:46:13Z</time>
      </trkpt>
      <trkpt lat="45.54973" lon="5.00953">
        <ele>299.529</ele>
        <time>2020-11-18T16:46:19Z</time>
      </trkpt>
      <trkpt lat="45.55005" lon="5.0094">
        <ele>301.153</ele>
        <time>2020-11-18T16:46:25Z</time>
      </trkpt>
      <trkpt lat="45.55035" lon="5.00926">
        <ele>302.913</ele>
        <time>2020-11-18T16:46:30Z</time>
      </trkpt>
      <trkpt lat="45.55068" lon="5.00911">
        <ele>305.014</ele>
        <time>2020-11-18T16:46:36Z</time>
      </trkpt>
      <trkpt lat="45.55091" lon="5.00897">
        <ele>307.158</ele>
        <time>2020-11-18T16:46:41Z</time>
      </trkpt>
      <trkpt lat="45.55127" lon="5.00881">
        <ele>308.037</ele>
        <time>2020-11-18T16:46:48Z</time>
      </trkpt>
      <trkpt lat="45.55155" lon="5.00868">
        <ele>309.207</ele>
        <time>2020-11-18T16:46:53Z</time>
      </trkpt>
      <trkpt lat="45.55184" lon="5.00853">
        <ele>307.948</ele>
        <time>2020-11-18T16:46:59Z</time>
      </trkpt>
      <trkpt lat="45.55202" lon="5.00842">
        <ele>305.613</ele>
        <time>2020-11-18T16:47:04Z</time>
      </trkpt>
      <trkpt lat="45.55221" lon="5.00828">
        <ele>303.615</ele>
        <time>2020-11-18T16:47:10Z</time>
      </trkpt>
      <trkpt lat="45.55244" lon="5.00812">
        <ele>301.014</ele>
        <time>2020-11-18T16:47:18Z</time>
      </trkpt>
      <trkpt lat="45.55265" lon="5.00787">
        <ele>298.998</ele>
        <time>2020-11-18T16:47:23Z</time>
      </trkpt>
      <trkpt lat="45.55281" lon="5.00767">
        <ele>296.859</ele>
        <time>2020-11-18T16:47:28Z</time>
      </trkpt>
      <trkpt lat="45.55306" lon="5.00746">
        <ele>296.307</ele>
        <time>2020-11-18T16:47:35Z</time>
      </trkpt>
      <trkpt lat="45.55332" lon="5.00729">
        <ele>295.35</ele>
        <time>2020-11-18T16:47:42Z</time>
      </trkpt>
      <trkpt lat="45.55356" lon="5.00718">
        <ele>293.996</ele>
        <time>2020-11-18T16:47:47Z</time>
      </trkpt>
      <trkpt lat="45.55387" lon="5.00721">
        <ele>292.987</ele>
        <time>2020-11-18T16:47:53Z</time>
      </trkpt>
      <trkpt lat="45.55406" lon="5.0072">
        <ele>293.374</ele>
        <time>2020-11-18T16:47:58Z</time>
      </trkpt>
      <trkpt lat="45.55398" lon="5.00683">
        <ele>294.287</ele>
        <time>2020-11-18T16:48:04Z</time>
      </trkpt>
      <trkpt lat="45.55389" lon="5.00643">
        <ele>293.093</ele>
        <time>2020-11-18T16:48:11Z</time>
      </trkpt>
      <trkpt lat="45.55382" lon="5.00614">
        <ele>291.929</ele>
        <time>2020-11-18T16:48:17Z</time>
      </trkpt>
      <trkpt lat="45.55378" lon="5.00571">
        <ele>292.011</ele>
        <time>2020-11-18T16:48:23Z</time>
      </trkpt>
      <trkpt lat="45.55369" lon="5.00539">
        <ele>293.629</ele>
        <time>2020-11-18T16:48:29Z</time>
      </trkpt>
      <trkpt lat="45.55356" lon="5.0051">
        <ele>295.987</ele>
        <time>2020-11-18T16:48:35Z</time>
      </trkpt>
      <trkpt lat="45.5534" lon="5.00484">
        <ele>295.982</ele>
        <time>2020-11-18T16:48:40Z</time>
      </trkpt>
      <trkpt lat="45.55322" lon="5.00471">
        <ele>295.331</ele>
        <time>2020-11-18T16:48:46Z</time>
      </trkpt>
      <trkpt lat="45.55305" lon="5.00451">
        <ele>293.224</ele>
        <time>2020-11-18T16:48:54Z</time>
      </trkpt>
      <trkpt lat="45.55293" lon="5.00433">
        <ele>293.692</ele>
        <time>2020-11-18T16:48:59Z</time>
      </trkpt>
      <trkpt lat="45.55305" lon="5.00418">
        <ele>293.593</ele>
        <time>2020-11-18T16:49:04Z</time>
      </trkpt>
      <trkpt lat="45.55332" lon="5.00408">
        <ele>292.995</ele>
        <time>2020-11-18T16:49:11Z</time>
      </trkpt>
      <trkpt lat="45.5535" lon="5.00394">
        <ele>291.697</ele>
        <time>2020-11-18T16:49:16Z</time>
      </trkpt>
      <trkpt lat="45.55376" lon="5.00385">
        <ele>290.035</ele>
        <time>2020-11-18T16:49:22Z</time>
      </trkpt>
      <trkpt lat="45.554" lon="5.00377">
        <ele>289.621</ele>
        <time>2020-11-18T16:49:27Z</time>
      </trkpt>
      <trkpt lat="45.55426" lon="5.00364">
        <ele>288.627</ele>
        <time>2020-11-18T16:49:33Z</time>
      </trkpt>
      <trkpt lat="45.55452" lon="5.00351">
        <ele>287.835</ele>
        <time>2020-11-18T16:49:39Z</time>
      </trkpt>
      <trkpt lat="45.55478" lon="5.00337">
        <ele>287.05</ele>
        <time>2020-11-18T16:49:46Z</time>
      </trkpt>
      <trkpt lat="45.55506" lon="5.00323">
        <ele>285.46</ele>
        <time>2020-11-18T16:49:52Z</time>
      </trkpt>
      <trkpt lat="45.5553" lon="5.0032">
        <ele>285.397</ele>
        <time>2020-11-18T16:49:58Z</time>
      </trkpt>
      <trkpt lat="45.55559" lon="5.00307">
        <ele>285.22</ele>
        <time>2020-11-18T16:50:04Z</time>
      </trkpt>
      <trkpt lat="45.55589" lon="5.00293">
        <ele>284.358</ele>
        <time>2020-11-18T16:50:10Z</time>
      </trkpt>
      <trkpt lat="45.55613" lon="5.0028">
        <ele>284.594</ele>
        <time>2020-11-18T16:50:15Z</time>
      </trkpt>
      <trkpt lat="45.55643" lon="5.00264">
        <ele>284.789</ele>
        <time>2020-11-18T16:50:21Z</time>
      </trkpt>
      <trkpt lat="45.55673" lon="5.00251">
        <ele>285.213</ele>
        <time>2020-11-18T16:50:27Z</time>
      </trkpt>
      <trkpt lat="45.55707" lon="5.00236">
        <ele>285.469</ele>
        <time>2020-11-18T16:50:34Z</time>
      </trkpt>
      <trkpt lat="45.55731" lon="5.00224">
        <ele>284.73</ele>
        <time>2020-11-18T16:50:39Z</time>
      </trkpt>
      <trkpt lat="45.55759" lon="5.00211">
        <ele>282.868</ele>
        <time>2020-11-18T16:50:45Z</time>
      </trkpt>
      <trkpt lat="45.55789" lon="5.00198">
        <ele>283.261</ele>
        <time>2020-11-18T16:50:51Z</time>
      </trkpt>
      <trkpt lat="45.55818" lon="5.00185">
        <ele>282.86</ele>
        <time>2020-11-18T16:50:57Z</time>
      </trkpt>
      <trkpt lat="45.55847" lon="5.00172">
        <ele>281.618</ele>
        <time>2020-11-18T16:51:03Z</time>
      </trkpt>
      <trkpt lat="45.55871" lon="5.00161">
        <ele>281.896</ele>
        <time>2020-11-18T16:51:08Z</time>
      </trkpt>
      <trkpt lat="45.55898" lon="5.00147">
        <ele>281.78</ele>
        <time>2020-11-18T16:51:14Z</time>
      </trkpt>
      <trkpt lat="45.5592" lon="5.00136">
        <ele>283.208</ele>
        <time>2020-11-18T16:51:19Z</time>
      </trkpt>
      <trkpt lat="45.55948" lon="5.00124">
        <ele>283.712</ele>
        <time>2020-11-18T16:51:25Z</time>
      </trkpt>
      <trkpt lat="45.55971" lon="5.00115">
        <ele>283.361</ele>
        <time>2020-11-18T16:51:30Z</time>
      </trkpt>
      <trkpt lat="45.55999" lon="5.00103">
        <ele>282.863</ele>
        <time>2020-11-18T16:51:36Z</time>
      </trkpt>
      <trkpt lat="45.5602" lon="5.00094">
        <ele>282.516</ele>
        <time>2020-11-18T16:51:41Z</time>
      </trkpt>
      <trkpt lat="45.5604" lon="5.00086">
        <ele>281.467</ele>
        <time>2020-11-18T16:51:46Z</time>
      </trkpt>
      <trkpt lat="45.56063" lon="5.00076">
        <ele>280.22</ele>
        <time>2020-11-18T16:51:52Z</time>
      </trkpt>
      <trkpt lat="45.56078" lon="5.00062">
        <ele>280.062</ele>
        <time>2020-11-18T16:51:57Z</time>
      </trkpt>
      <trkpt lat="45.56094" lon="5.00051">
        <ele>281.482</ele>
        <time>2020-11-18T16:52:03Z</time>
      </trkpt>
      <trkpt lat="45.56115" lon="5.00042">
        <ele>282.729</ele>
        <time>2020-11-18T16:52:09Z</time>
      </trkpt>
      <trkpt lat="45.56135" lon="5.00033">
        <ele>282.871</ele>
        <time>2020-11-18T16:52:15Z</time>
      </trkpt>
      <trkpt lat="45.56156" lon="5.00023">
        <ele>283.155</ele>
        <time>2020-11-18T16:52:21Z</time>
      </trkpt>
      <trkpt lat="45.56182" lon="5.00008">
        <ele>283.73</ele>
        <time>2020-11-18T16:52:29Z</time>
      </trkpt>
      <trkpt lat="45.56201" lon="5">
        <ele>284.532</ele>
        <time>2020-11-18T16:52:34Z</time>
      </trkpt>
      <trkpt lat="45.56223" lon="4.99994">
        <ele>285.403</ele>
        <time>2020-11-18T16:52:39Z</time>
      </trkpt>
      <trkpt lat="45.56246" lon="4.99985">
        <ele>285.924</ele>
        <time>2020-11-18T16:52:45Z</time>
      </trkpt>
      <trkpt lat="45.56265" lon="4.99977">
        <ele>285.752</ele>
        <time>2020-11-18T16:52:50Z</time>
      </trkpt>
      <trkpt lat="45.56287" lon="4.99965">
        <ele>285.202</ele>
        <time>2020-11-18T16:52:56Z</time>
      </trkpt>
      <trkpt lat="45.56307" lon="4.99957">
        <ele>285.739</ele>
        <time>2020-11-18T16:53:01Z</time>
      </trkpt>
      <trkpt lat="45.56325" lon="4.99947">
        <ele>286.301</ele>
        <time>2020-11-18T16:53:07Z</time>
      </trkpt>
      <trkpt lat="45.56347" lon="4.99936">
        <ele>287.141</ele>
        <time>2020-11-18T16:53:12Z</time>
      </trkpt>
      <trkpt lat="45.56365" lon="4.9993">
        <ele>287.562</ele>
        <time>2020-11-18T16:53:17Z</time>
      </trkpt>
      <trkpt lat="45.56382" lon="4.99923">
        <ele>287.503</ele>
        <time>2020-11-18T16:53:22Z</time>
      </trkpt>
      <trkpt lat="45.56402" lon="4.99915">
        <ele>287.901</ele>
        <time>2020-11-18T16:53:28Z</time>
      </trkpt>
      <trkpt lat="45.56416" lon="4.9992">
        <ele>288.21</ele>
        <time>2020-11-18T16:53:33Z</time>
      </trkpt>
      <trkpt lat="45.56429" lon="4.99924">
        <ele>287.896</ele>
        <time>2020-11-18T16:53:38Z</time>
      </trkpt>
      <trkpt lat="45.56447" lon="4.99913">
        <ele>288.062</ele>
        <time>2020-11-18T16:53:44Z</time>
      </trkpt>
      <trkpt lat="45.56455" lon="4.99892">
        <ele>288.424</ele>
        <time>2020-11-18T16:53:49Z</time>
      </trkpt>
      <trkpt lat="45.56473" lon="4.99878">
        <ele>289.193</ele>
        <time>2020-11-18T16:53:55Z</time>
      </trkpt>
      <trkpt lat="45.56491" lon="4.99867">
        <ele>290.562</ele>
        <time>2020-11-18T16:54:01Z</time>
      </trkpt>
      <trkpt lat="45.56504" lon="4.99859">
        <ele>291.228</ele>
        <time>2020-11-18T16:54:06Z</time>
      </trkpt>
      <trkpt lat="45.56522" lon="4.99852">
        <ele>291.929</ele>
        <time>2020-11-18T16:54:13Z</time>
      </trkpt>
      <trkpt lat="45.56537" lon="4.99845">
        <ele>292.919</ele>
        <time>2020-11-18T16:54:19Z</time>
      </trkpt>
      <trkpt lat="45.56548" lon="4.9984">
        <ele>293.527</ele>
        <time>2020-11-18T16:54:25Z</time>
      </trkpt>
      <trkpt lat="45.56562" lon="4.99833">
        <ele>295.266</ele>
        <time>2020-11-18T16:54:30Z</time>
      </trkpt>
      <trkpt lat="45.56572" lon="4.9983">
        <ele>297.257</ele>
        <time>2020-11-18T16:54:36Z</time>
      </trkpt>
      <trkpt lat="45.56588" lon="4.99826">
        <ele>299.704</ele>
        <time>2020-11-18T16:54:41Z</time>
      </trkpt>
      <trkpt lat="45.566" lon="4.99819">
        <ele>301.21</ele>
        <time>2020-11-18T16:54:47Z</time>
      </trkpt>
      <trkpt lat="45.56608" lon="4.9981">
        <ele>302.546</ele>
        <time>2020-11-18T16:54:53Z</time>
      </trkpt>
      <trkpt lat="45.56612" lon="4.99793">
        <ele>304.074</ele>
        <time>2020-11-18T16:54:58Z</time>
      </trkpt>
      <trkpt lat="45.56613" lon="4.99776">
        <ele>305.584</ele>
        <time>2020-11-18T16:55:03Z</time>
      </trkpt>
      <trkpt lat="45.56611" lon="4.99758">
        <ele>305.951</ele>
        <time>2020-11-18T16:55:09Z</time>
      </trkpt>
      <trkpt lat="45.56609" lon="4.99743">
        <ele>306.097</ele>
        <time>2020-11-18T16:55:14Z</time>
      </trkpt>
      <trkpt lat="45.56609" lon="4.99725">
        <ele>305.277</ele>
        <time>2020-11-18T16:55:20Z</time>
      </trkpt>
      <trkpt lat="45.56613" lon="4.99706">
        <ele>305.489</ele>
        <time>2020-11-18T16:55:27Z</time>
      </trkpt>
      <trkpt lat="45.56614" lon="4.9969">
        <ele>306.335</ele>
        <time>2020-11-18T16:55:32Z</time>
      </trkpt>
      <trkpt lat="45.56616" lon="4.99675">
        <ele>306.632</ele>
        <time>2020-11-18T16:55:37Z</time>
      </trkpt>
      <trkpt lat="45.56617" lon="4.99659">
        <ele>305.653</ele>
        <time>2020-11-18T16:55:43Z</time>
      </trkpt>
      <trkpt lat="45.56617" lon="4.99643">
        <ele>307.431</ele>
        <time>2020-11-18T16:55:49Z</time>
      </trkpt>
      <trkpt lat="45.56618" lon="4.9963">
        <ele>308.689</ele>
        <time>2020-11-18T16:55:54Z</time>
      </trkpt>
      <trkpt lat="45.56619" lon="4.99617">
        <ele>310.672</ele>
        <time>2020-11-18T16:55:59Z</time>
      </trkpt>
      <trkpt lat="45.56615" lon="4.996">
        <ele>314.422</ele>
        <time>2020-11-18T16:56:05Z</time>
      </trkpt>
      <trkpt lat="45.56614" lon="4.99582">
        <ele>315.999</ele>
        <time>2020-11-18T16:56:11Z</time>
      </trkpt>
      <trkpt lat="45.56614" lon="4.99559">
        <ele>316.291</ele>
        <time>2020-11-18T16:56:18Z</time>
      </trkpt>
      <trkpt lat="45.56619" lon="4.99542">
        <ele>316.721</ele>
        <time>2020-11-18T16:56:24Z</time>
      </trkpt>
      <trkpt lat="45.56627" lon="4.99531">
        <ele>317.164</ele>
        <time>2020-11-18T16:56:29Z</time>
      </trkpt>
      <trkpt lat="45.56636" lon="4.99523">
        <ele>317.76</ele>
        <time>2020-11-18T16:56:35Z</time>
      </trkpt>
      <trkpt lat="45.56648" lon="4.99512">
        <ele>319.038</ele>
        <time>2020-11-18T16:56:40Z</time>
      </trkpt>
      <trkpt lat="45.56663" lon="4.99503">
        <ele>319.768</ele>
        <time>2020-11-18T16:56:47Z</time>
      </trkpt>
      <trkpt lat="45.56678" lon="4.99496">
        <ele>320.902</ele>
        <time>2020-11-18T16:56:55Z</time>
      </trkpt>
      <trkpt lat="45.56689" lon="4.99492">
        <ele>320.979</ele>
        <time>2020-11-18T16:57:00Z</time>
      </trkpt>
      <trkpt lat="45.567" lon="4.99489">
        <ele>321.207</ele>
        <time>2020-11-18T16:57:06Z</time>
      </trkpt>
      <trkpt lat="45.5671" lon="4.99484">
        <ele>322.701</ele>
        <time>2020-11-18T16:57:11Z</time>
      </trkpt>
      <trkpt lat="45.5672" lon="4.9947">
        <ele>324.308</ele>
        <time>2020-11-18T16:57:17Z</time>
      </trkpt>
      <trkpt lat="45.56725" lon="4.99453">
        <ele>326.017</ele>
        <time>2020-11-18T16:57:23Z</time>
      </trkpt>
      <trkpt lat="45.56727" lon="4.99436">
        <ele>326.962</ele>
        <time>2020-11-18T16:57:30Z</time>
      </trkpt>
      <trkpt lat="45.56735" lon="4.9942">
        <ele>327.469</ele>
        <time>2020-11-18T16:57:35Z</time>
      </trkpt>
      <trkpt lat="45.56746" lon="4.99414">
        <ele>327.364</ele>
        <time>2020-11-18T16:57:40Z</time>
      </trkpt>
      <trkpt lat="45.56759" lon="4.9941">
        <ele>327.207</ele>
        <time>2020-11-18T16:57:46Z</time>
      </trkpt>
      <trkpt lat="45.56771" lon="4.9941">
        <ele>328.012</ele>
        <time>2020-11-18T16:57:51Z</time>
      </trkpt>
      <trkpt lat="45.56782" lon="4.99411">
        <ele>329.571</ele>
        <time>2020-11-18T16:57:58Z</time>
      </trkpt>
      <trkpt lat="45.56793" lon="4.99411">
        <ele>329.962</ele>
        <time>2020-11-18T16:58:04Z</time>
      </trkpt>
      <trkpt lat="45.56808" lon="4.99415">
        <ele>330.395</ele>
        <time>2020-11-18T16:58:12Z</time>
      </trkpt>
      <trkpt lat="45.56818" lon="4.99432">
        <ele>329.985</ele>
        <time>2020-11-18T16:58:17Z</time>
      </trkpt>
      <trkpt lat="45.56811" lon="4.99444">
        <ele>329.634</ele>
        <time>2020-11-18T16:58:23Z</time>
      </trkpt>
      <trkpt lat="45.56802" lon="4.99442">
        <ele>330.516</ele>
        <time>2020-11-18T16:58:28Z</time>
      </trkpt>
      <trkpt lat="45.56792" lon="4.99438">
        <ele>331.941</ele>
        <time>2020-11-18T16:58:34Z</time>
      </trkpt>
      <trkpt lat="45.5678" lon="4.99436">
        <ele>333.679</ele>
        <time>2020-11-18T16:58:40Z</time>
      </trkpt>
      <trkpt lat="45.56769" lon="4.99444">
        <ele>333.302</ele>
        <time>2020-11-18T16:58:45Z</time>
      </trkpt>
      <trkpt lat="45.56765" lon="4.9946">
        <ele>333.495</ele>
        <time>2020-11-18T16:58:52Z</time>
      </trkpt>
      <trkpt lat="45.56769" lon="4.99477">
        <ele>333.506</ele>
        <time>2020-11-18T16:58:57Z</time>
      </trkpt>
      <trkpt lat="45.56778" lon="4.99486">
        <ele>334.067</ele>
        <time>2020-11-18T16:59:04Z</time>
      </trkpt>
      <trkpt lat="45.56788" lon="4.99489">
        <ele>334.203</ele>
        <time>2020-11-18T16:59:09Z</time>
      </trkpt>
      <trkpt lat="45.568" lon="4.99487">
        <ele>335.174</ele>
        <time>2020-11-18T16:59:15Z</time>
      </trkpt>
      <trkpt lat="45.56809" lon="4.99486">
        <ele>337.307</ele>
        <time>2020-11-18T16:59:20Z</time>
      </trkpt>
      <trkpt lat="45.56818" lon="4.99484">
        <ele>340.56</ele>
        <time>2020-11-18T16:59:26Z</time>
      </trkpt>
      <trkpt lat="45.56826" lon="4.99483">
        <ele>342.509</ele>
        <time>2020-11-18T16:59:32Z</time>
      </trkpt>
      <trkpt lat="45.56836" lon="4.99484">
        <ele>344.267</ele>
        <time>2020-11-18T16:59:37Z</time>
      </trkpt>
      <trkpt lat="45.56844" lon="4.99482">
        <ele>346.068</ele>
        <time>2020-11-18T16:59:43Z</time>
      </trkpt>
      <trkpt lat="45.56855" lon="4.99481">
        <ele>347.979</ele>
        <time>2020-11-18T16:59:48Z</time>
      </trkpt>
      <trkpt lat="45.56868" lon="4.99481">
        <ele>350.18</ele>
        <time>2020-11-18T16:59:54Z</time>
      </trkpt>
      <trkpt lat="45.56878" lon="4.99479">
        <ele>349.523</ele>
        <time>2020-11-18T16:59:59Z</time>
      </trkpt>
      <trkpt lat="45.56888" lon="4.99476">
        <ele>349.574</ele>
        <time>2020-11-18T17:00:05Z</time>
      </trkpt>
      <trkpt lat="45.56899" lon="4.99475">
        <ele>349.766</ele>
        <time>2020-11-18T17:00:11Z</time>
      </trkpt>
      <trkpt lat="45.5691" lon="4.99471">
        <ele>349.076</ele>
        <time>2020-11-18T17:00:17Z</time>
      </trkpt>
      <trkpt lat="45.56918" lon="4.99469">
        <ele>350.665</ele>
        <time>2020-11-18T17:00:22Z</time>
      </trkpt>
      <trkpt lat="45.56929" lon="4.99468">
        <ele>351.471</ele>
        <time>2020-11-18T17:00:28Z</time>
      </trkpt>
      <trkpt lat="45.5694" lon="4.99469">
        <ele>352.614</ele>
        <time>2020-11-18T17:00:34Z</time>
      </trkpt>
      <trkpt lat="45.56949" lon="4.99464">
        <ele>351.85</ele>
        <time>2020-11-18T17:00:39Z</time>
      </trkpt>
      <trkpt lat="45.5696" lon="4.99456">
        <ele>352.292</ele>
        <time>2020-11-18T17:00:45Z</time>
      </trkpt>
      <trkpt lat="45.56969" lon="4.99448">
        <ele>352.485</ele>
        <time>2020-11-18T17:00:50Z</time>
      </trkpt>
      <trkpt lat="45.56979" lon="4.99438">
        <ele>352.34</ele>
        <time>2020-11-18T17:00:56Z</time>
      </trkpt>
      <trkpt lat="45.56988" lon="4.99432">
        <ele>353.387</ele>
        <time>2020-11-18T17:01:02Z</time>
      </trkpt>
      <trkpt lat="45.56997" lon="4.99428">
        <ele>354.544</ele>
        <time>2020-11-18T17:01:08Z</time>
      </trkpt>
      <trkpt lat="45.57008" lon="4.99423">
        <ele>356.47</ele>
        <time>2020-11-18T17:01:14Z</time>
      </trkpt>
      <trkpt lat="45.57021" lon="4.99419">
        <ele>356.261</ele>
        <time>2020-11-18T17:01:21Z</time>
      </trkpt>
      <trkpt lat="45.5703" lon="4.99415">
        <ele>356.351</ele>
        <time>2020-11-18T17:01:26Z</time>
      </trkpt>
      <trkpt lat="45.57042" lon="4.99411">
        <ele>356.636</ele>
        <time>2020-11-18T17:01:32Z</time>
      </trkpt>
      <trkpt lat="45.57054" lon="4.99407">
        <ele>357.526</ele>
        <time>2020-11-18T17:01:38Z</time>
      </trkpt>
      <trkpt lat="45.57063" lon="4.99404">
        <ele>357.947</ele>
        <time>2020-11-18T17:01:43Z</time>
      </trkpt>
      <trkpt lat="45.57076" lon="4.99402">
        <ele>357.414</ele>
        <time>2020-11-18T17:01:50Z</time>
      </trkpt>
      <trkpt lat="45.57087" lon="4.99401">
        <ele>357.52</ele>
        <time>2020-11-18T17:01:55Z</time>
      </trkpt>
      <trkpt lat="45.57099" lon="4.99402">
        <ele>357.59</ele>
        <time>2020-11-18T17:02:00Z</time>
      </trkpt>
      <trkpt lat="45.57109" lon="4.994">
        <ele>358.616</ele>
        <time>2020-11-18T17:02:06Z</time>
      </trkpt>
      <trkpt lat="45.57115" lon="4.99383">
        <ele>360.221</ele>
        <time>2020-11-18T17:02:12Z</time>
      </trkpt>
      <trkpt lat="45.57113" lon="4.99366">
        <ele>360.943</ele>
        <time>2020-11-18T17:02:17Z</time>
      </trkpt>
      <trkpt lat="45.57113" lon="4.99342">
        <ele>360.903</ele>
        <time>2020-11-18T17:02:23Z</time>
      </trkpt>
      <trkpt lat="45.57112" lon="4.99322">
        <ele>362.223</ele>
        <time>2020-11-18T17:02:30Z</time>
      </trkpt>
      <trkpt lat="45.5711" lon="4.99304">
        <ele>363.638</ele>
        <time>2020-11-18T17:02:35Z</time>
      </trkpt>
      <trkpt lat="45.5711" lon="4.99287">
        <ele>364.417</ele>
        <time>2020-11-18T17:02:41Z</time>
      </trkpt>
      <trkpt lat="45.57108" lon="4.99271">
        <ele>365.655</ele>
        <time>2020-11-18T17:02:47Z</time>
      </trkpt>
      <trkpt lat="45.57104" lon="4.99258">
        <ele>365.849</ele>
        <time>2020-11-18T17:02:52Z</time>
      </trkpt>
      <trkpt lat="45.57101" lon="4.99245">
        <ele>366.426</ele>
        <time>2020-11-18T17:02:59Z</time>
      </trkpt>
      <trkpt lat="45.57099" lon="4.99231">
        <ele>367.934</ele>
        <time>2020-11-18T17:03:06Z</time>
      </trkpt>
      <trkpt lat="45.57096" lon="4.99215">
        <ele>369.395</ele>
        <time>2020-11-18T17:03:11Z</time>
      </trkpt>
      <trkpt lat="45.57094" lon="4.99198">
        <ele>370.769</ele>
        <time>2020-11-18T17:03:17Z</time>
      </trkpt>
      <trkpt lat="45.57087" lon="4.9918">
        <ele>372.166</ele>
        <time>2020-11-18T17:03:24Z</time>
      </trkpt>
      <trkpt lat="45.57082" lon="4.99158">
        <ele>374.144</ele>
        <time>2020-11-18T17:03:32Z</time>
      </trkpt>
      <trkpt lat="45.57076" lon="4.99139">
        <ele>374.331</ele>
        <time>2020-11-18T17:03:37Z</time>
      </trkpt>
      <trkpt lat="45.57069" lon="4.99117">
        <ele>375.194</ele>
        <time>2020-11-18T17:03:43Z</time>
      </trkpt>
      <trkpt lat="45.57063" lon="4.99096">
        <ele>375.055</ele>
        <time>2020-11-18T17:03:49Z</time>
      </trkpt>
      <trkpt lat="45.57061" lon="4.99075">
        <ele>375.225</ele>
        <time>2020-11-18T17:03:54Z</time>
      </trkpt>
      <trkpt lat="45.57058" lon="4.99054">
        <ele>375.205</ele>
        <time>2020-11-18T17:03:59Z</time>
      </trkpt>
      <trkpt lat="45.57053" lon="4.99032">
        <ele>376.296</ele>
        <time>2020-11-18T17:04:05Z</time>
      </trkpt>
      <trkpt lat="45.57046" lon="4.99014">
        <ele>375.922</ele>
        <time>2020-11-18T17:04:11Z</time>
      </trkpt>
      <trkpt lat="45.57038" lon="4.98996">
        <ele>374.889</ele>
        <time>2020-11-18T17:04:17Z</time>
      </trkpt>
      <trkpt lat="45.5703" lon="4.98977">
        <ele>375.048</ele>
        <time>2020-11-18T17:04:23Z</time>
      </trkpt>
      <trkpt lat="45.57024" lon="4.98961">
        <ele>375.401</ele>
        <time>2020-11-18T17:04:29Z</time>
      </trkpt>
      <trkpt lat="45.57016" lon="4.98942">
        <ele>375.845</ele>
        <time>2020-11-18T17:04:34Z</time>
      </trkpt>
      <trkpt lat="45.57006" lon="4.98924">
        <ele>375.945</ele>
        <time>2020-11-18T17:04:40Z</time>
      </trkpt>
      <trkpt lat="45.56996" lon="4.98914">
        <ele>376.043</ele>
        <time>2020-11-18T17:04:45Z</time>
      </trkpt>
      <trkpt lat="45.56986" lon="4.98907">
        <ele>376.466</ele>
        <time>2020-11-18T17:04:51Z</time>
      </trkpt>
      <trkpt lat="45.5697" lon="4.98901">
        <ele>377.18</ele>
        <time>2020-11-18T17:04:56Z</time>
      </trkpt>
      <trkpt lat="45.56956" lon="4.98894">
        <ele>376.943</ele>
        <time>2020-11-18T17:05:02Z</time>
      </trkpt>
      <trkpt lat="45.56946" lon="4.98885">
        <ele>376.844</ele>
        <time>2020-11-18T17:05:07Z</time>
      </trkpt>
      <trkpt lat="45.56933" lon="4.98872">
        <ele>376.993</ele>
        <time>2020-11-18T17:05:13Z</time>
      </trkpt>
      <trkpt lat="45.56924" lon="4.98859">
        <ele>376.733</ele>
        <time>2020-11-18T17:05:18Z</time>
      </trkpt>
      <trkpt lat="45.56913" lon="4.98845">
        <ele>375.791</ele>
        <time>2020-11-18T17:05:24Z</time>
      </trkpt>
      <trkpt lat="45.56902" lon="4.9883">
        <ele>376.918</ele>
        <time>2020-11-18T17:05:30Z</time>
      </trkpt>
      <trkpt lat="45.56893" lon="4.98817">
        <ele>377.437</ele>
        <time>2020-11-18T17:05:35Z</time>
      </trkpt>
      <trkpt lat="45.56879" lon="4.98798">
        <ele>377.943</ele>
        <time>2020-11-18T17:05:41Z</time>
      </trkpt>
      <trkpt lat="45.56863" lon="4.98781">
        <ele>376.95</ele>
        <time>2020-11-18T17:05:48Z</time>
      </trkpt>
      <trkpt lat="45.5685" lon="4.98768">
        <ele>376.947</ele>
        <time>2020-11-18T17:05:53Z</time>
      </trkpt>
      <trkpt lat="45.56832" lon="4.98747">
        <ele>376.592</ele>
        <time>2020-11-18T17:05:59Z</time>
      </trkpt>
      <trkpt lat="45.56815" lon="4.98729">
        <ele>376.614</ele>
        <time>2020-11-18T17:06:04Z</time>
      </trkpt>
      <trkpt lat="45.56794" lon="4.987">
        <ele>376.954</ele>
        <time>2020-11-18T17:06:11Z</time>
      </trkpt>
      <trkpt lat="45.56779" lon="4.9867">
        <ele>376.878</ele>
        <time>2020-11-18T17:06:18Z</time>
      </trkpt>
      <trkpt lat="45.56767" lon="4.98644">
        <ele>378.017</ele>
        <time>2020-11-18T17:06:23Z</time>
      </trkpt>
      <trkpt lat="45.56755" lon="4.98619">
        <ele>378.159</ele>
        <time>2020-11-18T17:06:29Z</time>
      </trkpt>
      <trkpt lat="45.56744" lon="4.98597">
        <ele>377.96</ele>
        <time>2020-11-18T17:06:34Z</time>
      </trkpt>
      <trkpt lat="45.56735" lon="4.9857">
        <ele>377.743</ele>
        <time>2020-11-18T17:06:40Z</time>
      </trkpt>
      <trkpt lat="45.56728" lon="4.98545">
        <ele>377.851</ele>
        <time>2020-11-18T17:06:46Z</time>
      </trkpt>
      <trkpt lat="45.56725" lon="4.98516">
        <ele>379.411</ele>
        <time>2020-11-18T17:06:51Z</time>
      </trkpt>
      <trkpt lat="45.56724" lon="4.98491">
        <ele>382.225</ele>
        <time>2020-11-18T17:06:57Z</time>
      </trkpt>
      <trkpt lat="45.56722" lon="4.98471">
        <ele>383.807</ele>
        <time>2020-11-18T17:07:02Z</time>
      </trkpt>
      <trkpt lat="45.5672" lon="4.98452">
        <ele>385.834</ele>
        <time>2020-11-18T17:07:07Z</time>
      </trkpt>
      <trkpt lat="45.56718" lon="4.98425">
        <ele>386.364</ele>
        <time>2020-11-18T17:07:13Z</time>
      </trkpt>
      <trkpt lat="45.56715" lon="4.98398">
        <ele>386.008</ele>
        <time>2020-11-18T17:07:19Z</time>
      </trkpt>
      <trkpt lat="45.56717" lon="4.98374">
        <ele>385.096</ele>
        <time>2020-11-18T17:07:25Z</time>
      </trkpt>
      <trkpt lat="45.56726" lon="4.98343">
        <ele>385.468</ele>
        <time>2020-11-18T17:07:30Z</time>
      </trkpt>
      <trkpt lat="45.56734" lon="4.98307">
        <ele>385.45</ele>
        <time>2020-11-18T17:07:36Z</time>
      </trkpt>
      <trkpt lat="45.56735" lon="4.98279">
        <ele>385.877</ele>
        <time>2020-11-18T17:07:41Z</time>
      </trkpt>
      <trkpt lat="45.5673" lon="4.98251">
        <ele>385.228</ele>
        <time>2020-11-18T17:07:46Z</time>
      </trkpt>
      <trkpt lat="45.56725" lon="4.9822">
        <ele>383.307</ele>
        <time>2020-11-18T17:07:52Z</time>
      </trkpt>
      <trkpt lat="45.56722" lon="4.98194">
        <ele>382.555</ele>
        <time>2020-11-18T17:07:57Z</time>
      </trkpt>
      <trkpt lat="45.56716" lon="4.98163">
        <ele>382.226</ele>
        <time>2020-11-18T17:08:03Z</time>
      </trkpt>
      <trkpt lat="45.56709" lon="4.98135">
        <ele>383.204</ele>
        <time>2020-11-18T17:08:09Z</time>
      </trkpt>
      <trkpt lat="45.56701" lon="4.98114">
        <ele>383.1</ele>
        <time>2020-11-18T17:08:14Z</time>
      </trkpt>
      <trkpt lat="45.56693" lon="4.98087">
        <ele>382.149</ele>
        <time>2020-11-18T17:08:20Z</time>
      </trkpt>
      <trkpt lat="45.56686" lon="4.98064">
        <ele>381.792</ele>
        <time>2020-11-18T17:08:25Z</time>
      </trkpt>
      <trkpt lat="45.56678" lon="4.98039">
        <ele>380.559</ele>
        <time>2020-11-18T17:08:30Z</time>
      </trkpt>
      <trkpt lat="45.56668" lon="4.98013">
        <ele>380.511</ele>
        <time>2020-11-18T17:08:36Z</time>
      </trkpt>
      <trkpt lat="45.56658" lon="4.97993">
        <ele>380.949</ele>
        <time>2020-11-18T17:08:41Z</time>
      </trkpt>
      <trkpt lat="45.56644" lon="4.97971">
        <ele>381.757</ele>
        <time>2020-11-18T17:08:48Z</time>
      </trkpt>
      <trkpt lat="45.56631" lon="4.97946">
        <ele>380.677</ele>
        <time>2020-11-18T17:08:53Z</time>
      </trkpt>
      <trkpt lat="45.56626" lon="4.97917">
        <ele>381.069</ele>
        <time>2020-11-18T17:09:00Z</time>
      </trkpt>
      <trkpt lat="45.56624" lon="4.9789">
        <ele>384.227</ele>
        <time>2020-11-18T17:09:05Z</time>
      </trkpt>
      <trkpt lat="45.56623" lon="4.97866">
        <ele>384.945</ele>
        <time>2020-11-18T17:09:10Z</time>
      </trkpt>
      <trkpt lat="45.5662" lon="4.97826">
        <ele>383.375</ele>
        <time>2020-11-18T17:09:17Z</time>
      </trkpt>
      <trkpt lat="45.56619" lon="4.97785">
        <ele>382.014</ele>
        <time>2020-11-18T17:09:22Z</time>
      </trkpt>
      <trkpt lat="45.56626" lon="4.97739">
        <ele>379.731</ele>
        <time>2020-11-18T17:09:27Z</time>
      </trkpt>
      <trkpt lat="45.56636" lon="4.97684">
        <ele>376.289</ele>
        <time>2020-11-18T17:09:33Z</time>
      </trkpt>
      <trkpt lat="45.56624" lon="4.97611">
        <ele>370.923</ele>
        <time>2020-11-18T17:09:38Z</time>
      </trkpt>
      <trkpt lat="45.56634" lon="4.97519">
        <ele>365.335</ele>
        <time>2020-11-18T17:09:44Z</time>
      </trkpt>
      <trkpt lat="45.5665" lon="4.97405">
        <ele>359.936</ele>
        <time>2020-11-18T17:09:50Z</time>
      </trkpt>
      <trkpt lat="45.56661" lon="4.9733">
        <ele>356.465</ele>
        <time>2020-11-18T17:09:55Z</time>
      </trkpt>
      <trkpt lat="45.56668" lon="4.97267">
        <ele>353.974</ele>
        <time>2020-11-18T17:10:00Z</time>
      </trkpt>
      <trkpt lat="45.56672" lon="4.9722">
        <ele>350.548</ele>
        <time>2020-11-18T17:10:06Z</time>
      </trkpt>
      <trkpt lat="45.56656" lon="4.97212">
        <ele>348.212</ele>
        <time>2020-11-18T17:10:11Z</time>
      </trkpt>
      <trkpt lat="45.56642" lon="4.97196">
        <ele>346.01</ele>
        <time>2020-11-18T17:10:17Z</time>
      </trkpt>
      <trkpt lat="45.56624" lon="4.97181">
        <ele>344.311</ele>
        <time>2020-11-18T17:10:23Z</time>
      </trkpt>
      <trkpt lat="45.5661" lon="4.97167">
        <ele>344.247</ele>
        <time>2020-11-18T17:10:28Z</time>
      </trkpt>
      <trkpt lat="45.56593" lon="4.97151">
        <ele>345.349</ele>
        <time>2020-11-18T17:10:34Z</time>
      </trkpt>
      <trkpt lat="45.56579" lon="4.97135">
        <ele>345.693</ele>
        <time>2020-11-18T17:10:39Z</time>
      </trkpt>
      <trkpt lat="45.56566" lon="4.97112">
        <ele>349.223</ele>
        <time>2020-11-18T17:10:45Z</time>
      </trkpt>
      <trkpt lat="45.56556" lon="4.97088">
        <ele>353.835</ele>
        <time>2020-11-18T17:10:51Z</time>
      </trkpt>
      <trkpt lat="45.5655" lon="4.97072">
        <ele>356.533</ele>
        <time>2020-11-18T17:10:56Z</time>
      </trkpt>
      <trkpt lat="45.56544" lon="4.97056">
        <ele>357.529</ele>
        <time>2020-11-18T17:11:02Z</time>
      </trkpt>
      <trkpt lat="45.56538" lon="4.97043">
        <ele>357.977</ele>
        <time>2020-11-18T17:11:08Z</time>
      </trkpt>
      <trkpt lat="45.56531" lon="4.97028">
        <ele>358.952</ele>
        <time>2020-11-18T17:11:13Z</time>
      </trkpt>
      <trkpt lat="45.56526" lon="4.97017">
        <ele>359.425</ele>
        <time>2020-11-18T17:11:18Z</time>
      </trkpt>
      <trkpt lat="45.5652" lon="4.97005">
        <ele>361.741</ele>
        <time>2020-11-18T17:11:23Z</time>
      </trkpt>
      <trkpt lat="45.56513" lon="4.9699">
        <ele>364.669</ele>
        <time>2020-11-18T17:11:29Z</time>
      </trkpt>
      <trkpt lat="45.56506" lon="4.96971">
        <ele>366.465</ele>
        <time>2020-11-18T17:11:36Z</time>
      </trkpt>
      <trkpt lat="45.56501" lon="4.96953">
        <ele>367.946</ele>
        <time>2020-11-18T17:11:42Z</time>
      </trkpt>
      <trkpt lat="45.56496" lon="4.96934">
        <ele>369.431</ele>
        <time>2020-11-18T17:11:48Z</time>
      </trkpt>
      <trkpt lat="45.56494" lon="4.96919">
        <ele>370.264</ele>
        <time>2020-11-18T17:11:53Z</time>
      </trkpt>
      <trkpt lat="45.56491" lon="4.96903">
        <ele>372.496</ele>
        <time>2020-11-18T17:11:59Z</time>
      </trkpt>
      <trkpt lat="45.56488" lon="4.96885">
        <ele>374.39</ele>
        <time>2020-11-18T17:12:05Z</time>
      </trkpt>
      <trkpt lat="45.56488" lon="4.96868">
        <ele>375.498</ele>
        <time>2020-11-18T17:12:10Z</time>
      </trkpt>
      <trkpt lat="45.56488" lon="4.96848">
        <ele>375.633</ele>
        <time>2020-11-18T17:12:16Z</time>
      </trkpt>
      <trkpt lat="45.56488" lon="4.9683">
        <ele>375.467</ele>
        <time>2020-11-18T17:12:21Z</time>
      </trkpt>
      <trkpt lat="45.56488" lon="4.96805">
        <ele>374.785</ele>
        <time>2020-11-18T17:12:27Z</time>
      </trkpt>
      <trkpt lat="45.56487" lon="4.96777">
        <ele>374.917</ele>
        <time>2020-11-18T17:12:33Z</time>
      </trkpt>
      <trkpt lat="45.56486" lon="4.9675">
        <ele>374.581</ele>
        <time>2020-11-18T17:12:39Z</time>
      </trkpt>
      <trkpt lat="45.56486" lon="4.96721">
        <ele>374.506</ele>
        <time>2020-11-18T17:12:46Z</time>
      </trkpt>
      <trkpt lat="45.56486" lon="4.96698">
        <ele>374.308</ele>
        <time>2020-11-18T17:12:51Z</time>
      </trkpt>
      <trkpt lat="45.56488" lon="4.96672">
        <ele>374.213</ele>
        <time>2020-11-18T17:12:57Z</time>
      </trkpt>
      <trkpt lat="45.56491" lon="4.96651">
        <ele>374.084</ele>
        <time>2020-11-18T17:13:02Z</time>
      </trkpt>
      <trkpt lat="45.56495" lon="4.96631">
        <ele>374.314</ele>
        <time>2020-11-18T17:13:07Z</time>
      </trkpt>
      <trkpt lat="45.56499" lon="4.96606">
        <ele>374.922</ele>
        <time>2020-11-18T17:13:13Z</time>
      </trkpt>
      <trkpt lat="45.56502" lon="4.96584">
        <ele>375.936</ele>
        <time>2020-11-18T17:13:18Z</time>
      </trkpt>
      <trkpt lat="45.56505" lon="4.9656">
        <ele>377.772</ele>
        <time>2020-11-18T17:13:24Z</time>
      </trkpt>
      <trkpt lat="45.56507" lon="4.96533">
        <ele>379.027</ele>
        <time>2020-11-18T17:13:31Z</time>
      </trkpt>
      <trkpt lat="45.56509" lon="4.96514">
        <ele>380.07</ele>
        <time>2020-11-18T17:13:36Z</time>
      </trkpt>
      <trkpt lat="45.56509" lon="4.96491">
        <ele>381.186</ele>
        <time>2020-11-18T17:13:42Z</time>
      </trkpt>
      <trkpt lat="45.5651" lon="4.96473">
        <ele>382.674</ele>
        <time>2020-11-18T17:13:47Z</time>
      </trkpt>
      <trkpt lat="45.56509" lon="4.96453">
        <ele>384.026</ele>
        <time>2020-11-18T17:13:53Z</time>
      </trkpt>
      <trkpt lat="45.56508" lon="4.96434">
        <ele>384.644</ele>
        <time>2020-11-18T17:13:59Z</time>
      </trkpt>
      <trkpt lat="45.56508" lon="4.96417">
        <ele>384.695</ele>
        <time>2020-11-18T17:14:05Z</time>
      </trkpt>
      <trkpt lat="45.56508" lon="4.96401">
        <ele>385.364</ele>
        <time>2020-11-18T17:14:10Z</time>
      </trkpt>
      <trkpt lat="45.56508" lon="4.96364">
        <ele>385.294</ele>
        <time>2020-11-18T17:14:16Z</time>
      </trkpt>
      <trkpt lat="45.56504" lon="4.96316">
        <ele>382.865</ele>
        <time>2020-11-18T17:14:22Z</time>
      </trkpt>
      <trkpt lat="45.56494" lon="4.96272">
        <ele>380.292</ele>
        <time>2020-11-18T17:14:27Z</time>
      </trkpt>
      <trkpt lat="45.56476" lon="4.96213">
        <ele>375.971</ele>
        <time>2020-11-18T17:14:33Z</time>
      </trkpt>
      <trkpt lat="45.56465" lon="4.96146">
        <ele>371.668</ele>
        <time>2020-11-18T17:14:39Z</time>
      </trkpt>
      <trkpt lat="45.56472" lon="4.96081">
        <ele>366.944</ele>
        <time>2020-11-18T17:14:44Z</time>
      </trkpt>
      <trkpt lat="45.56485" lon="4.95997">
        <ele>362.056</ele>
        <time>2020-11-18T17:14:50Z</time>
      </trkpt>
      <trkpt lat="45.5652" lon="4.9591">
        <ele>357.425</ele>
        <time>2020-11-18T17:14:57Z</time>
      </trkpt>
      <trkpt lat="45.56538" lon="4.95848">
        <ele>354.755</ele>
        <time>2020-11-18T17:15:03Z</time>
      </trkpt>
      <trkpt lat="45.56545" lon="4.9577">
        <ele>350.888</ele>
        <time>2020-11-18T17:15:09Z</time>
      </trkpt>
      <trkpt lat="45.56557" lon="4.9569">
        <ele>345.434</ele>
        <time>2020-11-18T17:15:15Z</time>
      </trkpt>
      <trkpt lat="45.56581" lon="4.9565">
        <ele>340.429</ele>
        <time>2020-11-18T17:15:21Z</time>
      </trkpt>
      <trkpt lat="45.56605" lon="4.95681">
        <ele>337.197</ele>
        <time>2020-11-18T17:15:26Z</time>
      </trkpt>
      <trkpt lat="45.56617" lon="4.95718">
        <ele>334.382</ele>
        <time>2020-11-18T17:15:31Z</time>
      </trkpt>
      <trkpt lat="45.56623" lon="4.95756">
        <ele>332.226</ele>
        <time>2020-11-18T17:15:36Z</time>
      </trkpt>
      <trkpt lat="45.56652" lon="4.95783">
        <ele>328.261</ele>
        <time>2020-11-18T17:15:42Z</time>
      </trkpt>
      <trkpt lat="45.56684" lon="4.95757">
        <ele>327.024</ele>
        <time>2020-11-18T17:15:47Z</time>
      </trkpt>
      <trkpt lat="45.56723" lon="4.95721">
        <ele>325.433</ele>
        <time>2020-11-18T17:15:53Z</time>
      </trkpt>
      <trkpt lat="45.56768" lon="4.95688">
        <ele>323.283</ele>
        <time>2020-11-18T17:15:59Z</time>
      </trkpt>
      <trkpt lat="45.5681" lon="4.95661">
        <ele>321.549</ele>
        <time>2020-11-18T17:16:04Z</time>
      </trkpt>
      <trkpt lat="45.56853" lon="4.95627">
        <ele>318.451</ele>
        <time>2020-11-18T17:16:09Z</time>
      </trkpt>
      <trkpt lat="45.5689" lon="4.95584">
        <ele>314.389</ele>
        <time>2020-11-18T17:16:15Z</time>
      </trkpt>
      <trkpt lat="45.56945" lon="4.95549">
        <ele>310.272</ele>
        <time>2020-11-18T17:16:20Z</time>
      </trkpt>
      <trkpt lat="45.56999" lon="4.95546">
        <ele>307.143</ele>
        <time>2020-11-18T17:16:25Z</time>
      </trkpt>
      <trkpt lat="45.57051" lon="4.95579">
        <ele>302.922</ele>
        <time>2020-11-18T17:16:32Z</time>
      </trkpt>
      <trkpt lat="45.57033" lon="4.95643">
        <ele>299.678</ele>
        <time>2020-11-18T17:16:37Z</time>
      </trkpt>
      <trkpt lat="45.57009" lon="4.95692">
        <ele>297.094</ele>
        <time>2020-11-18T17:16:42Z</time>
      </trkpt>
      <trkpt lat="45.57053" lon="4.95711">
        <ele>293.481</ele>
        <time>2020-11-18T17:16:48Z</time>
      </trkpt>
      <trkpt lat="45.57091" lon="4.95679">
        <ele>291.458</ele>
        <time>2020-11-18T17:16:53Z</time>
      </trkpt>
      <trkpt lat="45.57136" lon="4.95694">
        <ele>288.492</ele>
        <time>2020-11-18T17:16:58Z</time>
      </trkpt>
      <trkpt lat="45.57177" lon="4.95766">
        <ele>284.053</ele>
        <time>2020-11-18T17:17:05Z</time>
      </trkpt>
      <trkpt lat="45.57246" lon="4.95745">
        <ele>281.998</ele>
        <time>2020-11-18T17:17:10Z</time>
      </trkpt>
      <trkpt lat="45.57316" lon="4.95756">
        <ele>280.929</ele>
        <time>2020-11-18T17:17:17Z</time>
      </trkpt>
      <trkpt lat="45.57381" lon="4.95796">
        <ele>279.134</ele>
        <time>2020-11-18T17:17:22Z</time>
      </trkpt>
      <trkpt lat="45.57427" lon="4.95824">
        <ele>277.939</ele>
        <time>2020-11-18T17:17:27Z</time>
      </trkpt>
      <trkpt lat="45.57479" lon="4.95844">
        <ele>277.389</ele>
        <time>2020-11-18T17:17:33Z</time>
      </trkpt>
      <trkpt lat="45.57519" lon="4.95858">
        <ele>278.205</ele>
        <time>2020-11-18T17:17:38Z</time>
      </trkpt>
      <trkpt lat="45.57568" lon="4.95871">
        <ele>278.903</ele>
        <time>2020-11-18T17:17:44Z</time>
      </trkpt>
      <trkpt lat="45.57606" lon="4.95883">
        <ele>278.863</ele>
        <time>2020-11-18T17:17:49Z</time>
      </trkpt>
      <trkpt lat="45.57651" lon="4.95895">
        <ele>278.624</ele>
        <time>2020-11-18T17:17:55Z</time>
      </trkpt>
      <trkpt lat="45.57694" lon="4.95903">
        <ele>278.598</ele>
        <time>2020-11-18T17:18:02Z</time>
      </trkpt>
      <trkpt lat="45.57737" lon="4.95913">
        <ele>277.35</ele>
        <time>2020-11-18T17:18:07Z</time>
      </trkpt>
      <trkpt lat="45.57776" lon="4.9592">
        <ele>277.264</ele>
        <time>2020-11-18T17:18:13Z</time>
      </trkpt>
      <trkpt lat="45.57814" lon="4.95926">
        <ele>278.398</ele>
        <time>2020-11-18T17:18:19Z</time>
      </trkpt>
      <trkpt lat="45.57863" lon="4.95936">
        <ele>279.162</ele>
        <time>2020-11-18T17:18:27Z</time>
      </trkpt>
      <trkpt lat="45.5789" lon="4.9594">
        <ele>279.941</ele>
        <time>2020-11-18T17:18:32Z</time>
      </trkpt>
      <trkpt lat="45.5793" lon="4.95946">
        <ele>279.69</ele>
        <time>2020-11-18T17:18:39Z</time>
      </trkpt>
      <trkpt lat="45.57967" lon="4.95952">
        <ele>278.979</ele>
        <time>2020-11-18T17:18:45Z</time>
      </trkpt>
      <trkpt lat="45.57995" lon="4.9596">
        <ele>278.702</ele>
        <time>2020-11-18T17:18:50Z</time>
      </trkpt>
      <trkpt lat="45.58027" lon="4.95967">
        <ele>279.309</ele>
        <time>2020-11-18T17:18:56Z</time>
      </trkpt>
      <trkpt lat="45.58054" lon="4.95973">
        <ele>279.562</ele>
        <time>2020-11-18T17:19:01Z</time>
      </trkpt>
      <trkpt lat="45.58086" lon="4.95979">
        <ele>280.704</ele>
        <time>2020-11-18T17:19:07Z</time>
      </trkpt>
      <trkpt lat="45.5812" lon="4.95986">
        <ele>281.85</ele>
        <time>2020-11-18T17:19:13Z</time>
      </trkpt>
      <trkpt lat="45.58154" lon="4.95991">
        <ele>282.24</ele>
        <time>2020-11-18T17:19:19Z</time>
      </trkpt>
      <trkpt lat="45.58188" lon="4.95999">
        <ele>282.744</ele>
        <time>2020-11-18T17:19:25Z</time>
      </trkpt>
      <trkpt lat="45.5822" lon="4.96006">
        <ele>283.309</ele>
        <time>2020-11-18T17:19:31Z</time>
      </trkpt>
      <trkpt lat="45.58247" lon="4.96012">
        <ele>283.823</ele>
        <time>2020-11-18T17:19:36Z</time>
      </trkpt>
      <trkpt lat="45.58274" lon="4.96018">
        <ele>284.819</ele>
        <time>2020-11-18T17:19:41Z</time>
      </trkpt>
      <trkpt lat="45.58305" lon="4.96024">
        <ele>285.356</ele>
        <time>2020-11-18T17:19:47Z</time>
      </trkpt>
      <trkpt lat="45.5833" lon="4.96029">
        <ele>285.794</ele>
        <time>2020-11-18T17:19:52Z</time>
      </trkpt>
      <trkpt lat="45.5836" lon="4.96035">
        <ele>286.234</ele>
        <time>2020-11-18T17:19:58Z</time>
      </trkpt>
      <trkpt lat="45.58384" lon="4.9604">
        <ele>286.925</ele>
        <time>2020-11-18T17:20:03Z</time>
      </trkpt>
      <trkpt lat="45.58414" lon="4.96045">
        <ele>287.02</ele>
        <time>2020-11-18T17:20:09Z</time>
      </trkpt>
      <trkpt lat="45.58443" lon="4.96051">
        <ele>287.349</ele>
        <time>2020-11-18T17:20:15Z</time>
      </trkpt>
      <trkpt lat="45.58472" lon="4.9606">
        <ele>288.001</ele>
        <time>2020-11-18T17:20:21Z</time>
      </trkpt>
      <trkpt lat="45.58495" lon="4.96066">
        <ele>288.803</ele>
        <time>2020-11-18T17:20:26Z</time>
      </trkpt>
      <trkpt lat="45.58518" lon="4.96072">
        <ele>289.982</ele>
        <time>2020-11-18T17:20:32Z</time>
      </trkpt>
      <trkpt lat="45.58545" lon="4.96076">
        <ele>290.804</ele>
        <time>2020-11-18T17:20:37Z</time>
      </trkpt>
      <trkpt lat="45.58566" lon="4.96096">
        <ele>291.113</ele>
        <time>2020-11-18T17:20:43Z</time>
      </trkpt>
      <trkpt lat="45.58594" lon="4.96096">
        <ele>289.399</ele>
        <time>2020-11-18T17:20:49Z</time>
      </trkpt>
      <trkpt lat="45.58618" lon="4.96093">
        <ele>288.53</ele>
        <time>2020-11-18T17:20:54Z</time>
      </trkpt>
      <trkpt lat="45.58646" lon="4.96108">
        <ele>288.593</ele>
        <time>2020-11-18T17:21:00Z</time>
      </trkpt>
      <trkpt lat="45.58665" lon="4.96123">
        <ele>288.259</ele>
        <time>2020-11-18T17:21:06Z</time>
      </trkpt>
      <trkpt lat="45.58673" lon="4.96148">
        <ele>289.41</ele>
        <time>2020-11-18T17:21:11Z</time>
      </trkpt>
      <trkpt lat="45.58673" lon="4.96162">
        <ele>289.259</ele>
        <time>2020-11-18T17:21:17Z</time>
      </trkpt>
    </trkseg>
  </trk>
</gpx>